Observation data for Coyanosa on 08/03/2020      Previous  Date       Current Mesonet Observations  Soil Data  Daily Summary Page  Observations in Plain Language
KCO1 030500Z 11007KT 30/09 A3001 RMK A01 T03010091  RH  027%=      5-min Rain = 0
KCO1 030501Z 11009KT 30/09 A3001 RMK A01 T03000090  RH  027%=      5-min Rain = 0
KCO1 030502Z 12009KT 30/09 A3001 RMK A01 T02990090  RH  027%=      5-min Rain = 0
KCO1 030503Z 12009KT 30/09 A3001 RMK A01 T02990090  RH  027%=      5-min Rain = 0
KCO1 030504Z 13009KT 30/09 A3001 RMK A01 T02990090  RH  027%=      5-min Rain = 0
KCO1 030505Z 13009KT 30/09 A3001 RMK A01 T02990090  RH  027%=      5-min Rain = 0
KCO1 030506Z 13009KT 30/09 A3001 RMK A01 T03000090  RH  027%=      5-min Rain = 0
KCO1 030507Z 13009KT 30/09 A3001 RMK A01 T03000091  RH  027%=      5-min Rain = 0
KCO1 030508Z 13009KT 30/09 A3001 RMK A01 T03000091  RH  027%=      5-min Rain = 0
KCO1 030509Z 13008KT 30/09 A3001 RMK A01 T03000091  RH  027%=      5-min Rain = 0
KCO1 030510Z 13009KT 30/09 A3001 RMK A01 T03000092  RH  027%=      5-min Rain = 0
KCO1 030511Z 13009KT 30/09 A3001 RMK A01 T03000092  RH  027%=      5-min Rain = 0
KCO1 030512Z 13008KT 30/09 A3001 RMK A01 T03000092  RH  027%=      5-min Rain = 0
KCO1 030513Z 13008KT 30/09 A3001 RMK A01 T03000092  RH  027%=      5-min Rain = 0
KCO1 030514Z 14008KT 30/09 A3001 RMK A01 T03000093  RH  028%=      5-min Rain = 0
KCO1 030515Z 14008KT 30/09 A3001 RMK A01 T03000093  RH  027%=      5-min Rain = 0
KCO1 030516Z 14007KT 30/09 A3001 RMK A01 T03010094  RH  028%=      5-min Rain = 0
KCO1 030517Z 13008KT 30/09 A3001 RMK A01 T03000094  RH  028%=      5-min Rain = 0
KCO1 030518Z 14008KT 30/09 A3001 RMK A01 T02990094  RH  028%=      5-min Rain = 0
KCO1 030519Z 14007KT 30/09 A3001 RMK A01 T03000094  RH  028%=      5-min Rain = 0
KCO1 030520Z 14007KT 30/10 A3001 RMK A01 T03000095  RH  028%=      5-min Rain = 0
KCO1 030521Z 14008KT 30/09 A3001 RMK A01 T02990094  RH  028%=      5-min Rain = 0
KCO1 030522Z 14007KT 30/10 A3001 RMK A01 T02990095  RH  028%=      5-min Rain = 0
KCO1 030523Z 14008KT 30/10 A3001 RMK A01 T02990095  RH  028%=      5-min Rain = 0
KCO1 030524Z 14007KT 30/10 A3001 RMK A01 T02990095  RH  028%=      5-min Rain = 0
KCO1 030525Z 14008KT 30/10 A3001 RMK A01 T02980095  RH  028%=      5-min Rain = 0
KCO1 030526Z 14007KT 30/10 A3001 RMK A01 T02980095  RH  028%=      5-min Rain = 0
KCO1 030527Z 15008KT 30/10 A3001 RMK A01 T02970095  RH  028%=      5-min Rain = 0
KCO1 030528Z 14008KT 30/10 A3002 RMK A01 T02970095  RH  028%=      5-min Rain = 0
KCO1 030529Z 14008KT 30/10 A3002 RMK A01 T02970095  RH  029%=      5-min Rain = 0
KCO1 030530Z 14007KT 30/10 A3002 RMK A01 T02960095  RH  029%=      5-min Rain = 0
KCO1 030531Z 14007KT 30/10 A3002 RMK A01 T02960096  RH  029%=      5-min Rain = 0
KCO1 030532Z 14008KT 30/10 A3002 RMK A01 T02960095  RH  029%=      5-min Rain = 0
KCO1 030533Z 14008KT 30/10 A3002 RMK A01 T02950096  RH  029%=      5-min Rain = 0
KCO1 030534Z 14008KT 30/10 A3002 RMK A01 T02950095  RH  029%=      5-min Rain = 0
KCO1 030535Z 14007KT 30/10 A3002 RMK A01 T02950096  RH  029%=      5-min Rain = 0
KCO1 030536Z 14008KT 29/10 A3002 RMK A01 T02940096  RH  029%=      5-min Rain = 0
KCO1 030537Z 14008KT 29/10 A3002 RMK A01 T02940096  RH  029%=      5-min Rain = 0
KCO1 030538Z 14008KT 29/10 A3002 RMK A01 T02940096  RH  029%=      5-min Rain = 0
KCO1 030539Z 14007KT 29/10 A3002 RMK A01 T02940097  RH  029%=      5-min Rain = 0
KCO1 030540Z 13007KT 29/10 A3002 RMK A01 T02940097  RH  029%=      5-min Rain = 0
KCO1 030541Z 13007KT 29/10 A3002 RMK A01 T02940097  RH  029%=      5-min Rain = 0
KCO1 030542Z 13008KT 29/10 A3002 RMK A01 T02940097  RH  029%=      5-min Rain = 0
KCO1 030543Z 13009KT 29/10 A3002 RMK A01 T02940097  RH  029%=      5-min Rain = 0
KCO1 030544Z 12008KT 29/10 A3002 RMK A01 T02930097  RH  030%=      5-min Rain = 0
KCO1 030545Z 12007KT 29/10 A3002 RMK A01 T02930097  RH  030%=      5-min Rain = 0
KCO1 030546Z 12007KT 29/10 A3003 RMK A01 T02930097  RH  030%=      5-min Rain = 0
KCO1 030547Z 12007KT 29/10 A3003 RMK A01 T02930097  RH  030%=      5-min Rain = 0
KCO1 030548Z 12008KT 29/10 A3003 RMK A01 T02920097  RH  030%=      5-min Rain = 0
KCO1 030549Z 12007KT 29/10 A3003 RMK A01 T02920097  RH  030%=      5-min Rain = 0
KCO1 030550Z 13008KT 29/10 A3003 RMK A01 T02920097  RH  030%=      5-min Rain = 0
KCO1 030551Z 13008KT 29/10 A3003 RMK A01 T02920098  RH  030%=      5-min Rain = 0
KCO1 030552Z 13009KT 29/10 A3003 RMK A01 T02920098  RH  030%=      5-min Rain = 0
KCO1 030553Z 13008KT 29/10 A3003 RMK A01 T02930098  RH  030%=      5-min Rain = 0
KCO1 030554Z 14008KT 29/10 A3003 RMK A01 T02930098  RH  030%=      5-min Rain = 0
KCO1 030555Z 14008KT 29/10 A3003 RMK A01 T02930099  RH  030%=      5-min Rain = 0
KCO1 030556Z 14008KT 29/10 A3003 RMK A01 T02930099  RH  030%=      5-min Rain = 0
KCO1 030557Z 14008KT 29/10 A3003 RMK A01 T02930099  RH  030%=      5-min Rain = 0
KCO1 030558Z 14008KT 29/10 A3003 RMK A01 T02940100  RH  030%=      5-min Rain = 0
KCO1 030559Z 14008KT 29/10 A3003 RMK A01 T02940100  RH  030%=      5-min Rain = 0
KCO1 030600Z 14008KT 30/10 A3003 RMK A01 T02950101  RH  030%=      5-min Rain = 0
KCO1 030601Z 13008KT 30/10 A3002 RMK A01 T02950101  RH  030%=      5-min Rain = 0
KCO1 030602Z 14008KT 29/10 A3002 RMK A01 T02940101  RH  030%=      5-min Rain = 0
KCO1 030603Z 14008KT 29/10 A3002 RMK A01 T02940101  RH  030%=      5-min Rain = 0
KCO1 030604Z 14008KT 29/10 A3002 RMK A01 T02940102  RH  030%=      5-min Rain = 0
KCO1 030605Z 14008KT 29/10 A3002 RMK A01 T02940102  RH  030%=      5-min Rain = 0
KCO1 030606Z 14008KT 29/10 A3002 RMK A01 T02940102  RH  030%=      5-min Rain = 0
KCO1 030607Z 14009KT 29/10 A3002 RMK A01 T02940102  RH  030%=      5-min Rain = 0
KCO1 030608Z 14009KT 29/10 A3002 RMK A01 T02940102  RH  030%=      5-min Rain = 0
KCO1 030609Z 14010KT 29/10 A3002 RMK A01 T02940102  RH  030%=      5-min Rain = 0
KCO1 030610Z 14008KT 29/10 A3002 RMK A01 T02940101  RH  030%=      5-min Rain = 0
KCO1 030611Z 14009KT 29/10 A3002 RMK A01 T02940102  RH  030%=      5-min Rain = 0
KCO1 030612Z 14008KT 29/10 A3002 RMK A01 T02940102  RH  030%=      5-min Rain = 0
KCO1 030613Z 14009KT 29/10 A3002 RMK A01 T02940102  RH  030%=      5-min Rain = 0
KCO1 030614Z 14008KT 29/10 A3002 RMK A01 T02940102  RH  030%=      5-min Rain = 0
KCO1 030615Z 14009KT 29/10 A3002 RMK A01 T02940102  RH  030%=      5-min Rain = 0
KCO1 030616Z 14009KT 29/10 A3001 RMK A01 T02940102  RH  030%=      5-min Rain = 0
KCO1 030617Z 14009KT 29/10 A3001 RMK A01 T02940102  RH  030%=      5-min Rain = 0
KCO1 030618Z 14010KT 29/10 A3001 RMK A01 T02940103  RH  030%=      5-min Rain = 0
KCO1 030619Z 14009KT 29/10 A3001 RMK A01 T02940103  RH  030%=      5-min Rain = 0
KCO1 030620Z 15009KT 29/10 A3001 RMK A01 T02940103  RH  030%=      5-min Rain = 0
KCO1 030621Z 15008KT 30/10 A3001 RMK A01 T02950103  RH  030%=      5-min Rain = 0
KCO1 030622Z 15010KT 30/10 A3001 RMK A01 T02950104  RH  030%=      5-min Rain = 0
KCO1 030623Z 15009KT 30/10 A3001 RMK A01 T02950104  RH  030%=      5-min Rain = 0
KCO1 030624Z 15010KT 30/10 A3001 RMK A01 T02970104  RH  030%=      5-min Rain = 0
KCO1 030625Z 15009KT 30/11 A3001 RMK A01 T02970105  RH  030%=      5-min Rain = 0
KCO1 030626Z 15009KT 30/11 A3001 RMK A01 T02980105  RH  030%=      5-min Rain = 0
KCO1 030627Z 15009KT 30/11 A3002 RMK A01 T02980105  RH  030%=      5-min Rain = 0
KCO1 030628Z 14010KT 30/11 A3002 RMK A01 T02980105  RH  030%=      5-min Rain = 0
KCO1 030629Z 15007KT 30/11 A3002 RMK A01 T02990106  RH  030%=      5-min Rain = 0
KCO1 030630Z 14007KT 30/11 A3002 RMK A01 T02990106  RH  030%=      5-min Rain = 0
KCO1 030631Z 15007KT 30/11 A3002 RMK A01 T02990106  RH  030%=      5-min Rain = 0
KCO1 030632Z 15007KT 30/11 A3002 RMK A01 T02990106  RH  030%=      5-min Rain = 0
KCO1 030633Z 15005KT 30/11 A3003 RMK A01 T02990106  RH  030%=      5-min Rain = 0
KCO1 030634Z 14005KT 30/11 A3003 RMK A01 T02990107  RH  030%=      5-min Rain = 0
KCO1 030635Z 14003KT 30/11 A3003 RMK A01 T02990107  RH  030%=      5-min Rain = 0
KCO1 030636Z 13003KT 30/11 A3004 RMK A01 T02990107  RH  030%=      5-min Rain = 0
KCO1 030637Z 16001KT 30/11 A3005 RMK A01 T02990107  RH  030%=      5-min Rain = 0
KCO1 030638Z 35002KT 30/11 A3005 RMK A01 T02990107  RH  030%=      5-min Rain = 0
KCO1 030639Z 33005KT 30/11 A3006 RMK A01 T02990107  RH  030%=      5-min Rain = 0
KCO1 030640Z 33010KT 30/11 A3006 RMK A01 T03000107  RH  030%=      5-min Rain = 0
KCO1 030641Z 33013KT 30/11 A3007 RMK A01 T03010107  RH  030%=      5-min Rain = 0
KCO1 030642Z 33012KT 30/11 A3007 RMK A01 T03000107  RH  030%=      5-min Rain = 0
KCO1 030643Z 33011G17KT 30/11 A3007 RMK A01 T03000106  RH  030%=      5-min Rain = 0
KCO1 030644Z 34015KT 30/11 A3007 RMK A01 T02990107  RH  030%=      5-min Rain = 0
KCO1 030645Z 34015G20KT 30/11 A3007 RMK A01 T02980107  RH  031%=      5-min Rain = 0
KCO1 030646Z 35017KT 30/11 A3007 RMK A01 T02980111  RH  031%=      5-min Rain = 0
KCO1 030647Z 34015KT 30/11 A3007 RMK A01 T02970112  RH  032%=      5-min Rain = 0
KCO1 030648Z 35015KT 30/11 A3007 RMK A01 T02970112  RH  032%=      5-min Rain = 0
KCO1 030649Z 34016KT 30/11 A3007 RMK A01 T02970110  RH  031%=      5-min Rain = 0
KCO1 030650Z 35012KT 30/11 A3007 RMK A01 T02970110  RH  031%=      5-min Rain = 0
KCO1 030651Z 34010KT 30/11 A3007 RMK A01 T02980109  RH  031%=      5-min Rain = 0
KCO1 030652Z 33012G17KT 30/11 A3007 RMK A01 T02990109  RH  031%=      5-min Rain = 0
KCO1 030653Z 35003KT 30/11 A3007 RMK A01 T03020109  RH  030%=      5-min Rain = 0
KCO1 030654Z 02008G20KT 30/11 A3007 RMK A01 T03040109  RH  030%=      5-min Rain = 0
KCO1 030655Z 02008G14KT 31/11 A3007 RMK A01 T03060109  RH  030%=      5-min Rain = 0
KCO1 030656Z 01011G17KT 31/11 A3007 RMK A01 T03090109  RH  029%=      5-min Rain = 0
KCO1 030657Z 01002G7KT 31/11 A3006 RMK A01 T03120109  RH  029%=      5-min Rain = 0
KCO1 030658Z 00004KT 31/11 A3007 RMK A01 T03120109  RH  029%=      5-min Rain = 0
KCO1 030659Z 33005KT 31/11 A3007 RMK A01 T03130108  RH  028%=      5-min Rain = 0
KCO1 030700Z 33007KT 31/11 A3007 RMK A01 T03140108  RH  028%=      5-min Rain = 0
KCO1 030701Z 30013G21KT 31/12 A3008 RMK A01 T03140117  RH  030%=      5-min Rain = 0
KCO1 030702Z 31013G19KT 31/14 A3007 RMK A01 T03050136  RH  036%=      5-min Rain = 0
KCO1 030703Z 32016G23KT 29/14 A3007 RMK A01 T02920136  RH  038%=      5-min Rain = 0
KCO1 030704Z 34024KT 29/13 A3007 RMK A01 T02890133  RH  038%=      5-min Rain = 0
KCO1 030705Z 35020KT 29/14 A3008 RMK A01 T02850140  RH  041%=      5-min Rain = 0
KCO1 030706Z 34014G20KT 28/14 A3008 RMK A01 T02790144  RH  043%=      5-min Rain = 0
KCO1 030707Z 35012G18KT 28/14 A3008 RMK A01 T02750144  RH  045%=      5-min Rain = 0
KCO1 030708Z 34018KT 27/15 A3008 RMK A01 T02740145  RH  045%=      5-min Rain = 0
KCO1 030709Z 34016KT 27/15 A3008 RMK A01 T02720145  RH  046%=      5-min Rain = 0
KCO1 030710Z 34015KT 27/15 A3008 RMK A01 T02720146  RH  046%=      5-min Rain = 0
KCO1 030711Z 34015KT 27/15 A3008 RMK A01 T02710146  RH  046%=      5-min Rain = 0
KCO1 030712Z 34013G20KT 27/15 A3008 RMK A01 T02700147  RH  047%=      5-min Rain = 0
KCO1 030713Z 34015KT 27/15 A3008 RMK A01 T02690147  RH  047%=      5-min Rain = 0
KCO1 030714Z 35013KT 27/15 A3008 RMK A01 T02690147  RH  047%=      5-min Rain = 0
KCO1 030715Z 34014KT 27/15 A3008 RMK A01 T02680147  RH  048%=      5-min Rain = 0
KCO1 030716Z 35017KT 27/15 A3008 RMK A01 T02680148  RH  048%=      5-min Rain = 0
KCO1 030717Z 35015KT 27/15 A3008 RMK A01 T02670147  RH  048%=      5-min Rain = 0
KCO1 030718Z 34017KT 27/15 A3008 RMK A01 T02660148  RH  048%=      5-min Rain = 0
KCO1 030719Z 35015KT 27/15 A3008 RMK A01 T02660147  RH  048%=      5-min Rain = 0
KCO1 030720Z 35015KT 27/15 A3008 RMK A01 T02660147  RH  048%=      5-min Rain = 0
KCO1 030721Z 35015KT 27/15 A3008 RMK A01 T02660146  RH  048%=      5-min Rain = 0
KCO1 030722Z 36015KT 27/15 A3008 RMK A01 T02660145  RH  047%=      5-min Rain = 0
KCO1 030723Z 36014KT 27/15 A3008 RMK A01 T02670145  RH  047%=      5-min Rain = 0
KCO1 030724Z 36013G18KT 27/14 A3008 RMK A01 T02670144  RH  047%=      5-min Rain = 0
KCO1 030725Z 35014KT 27/14 A3008 RMK A01 T02680144  RH  046%=      5-min Rain = 0
KCO1 030726Z 36012KT 27/14 A3008 RMK A01 T02680144  RH  046%=      5-min Rain = 0
KCO1 030727Z 36011KT 27/14 A3008 RMK A01 T02690143  RH  046%=      5-min Rain = 0
KCO1 030728Z 00012KT 27/14 A3008 RMK A01 T02690142  RH  046%=      5-min Rain = 0
KCO1 030729Z 00011KT 27/14 A3008 RMK A01 T02690139  RH  045%=      5-min Rain = 0
KCO1 030730Z 01014G19KT 27/14 A3008 RMK A01 T02710135  RH  043%=      5-min Rain = 0
KCO1 030731Z 00012KT 27/13 A3008 RMK A01 T02740134  RH  042%=      5-min Rain = 0
KCO1 030732Z 00013KT 28/13 A3008 RMK A01 T02750134  RH  042%=      5-min Rain = 0
KCO1 030733Z 00012KT 28/13 A3008 RMK A01 T02750133  RH  041%=      5-min Rain = 0
KCO1 030734Z 01016G21KT 28/13 A3008 RMK A01 T02760130  RH  040%=      5-min Rain = 0
KCO1 030735Z 01015G20KT 28/12 A3009 RMK A01 T02780124  RH  038%=      5-min Rain = 0
KCO1 030736Z 01014G19KT 28/12 A3008 RMK A01 T02810123  RH  038%=      5-min Rain = 0
KCO1 030737Z 01016KT 28/12 A3009 RMK A01 T02820123  RH  037%=      5-min Rain = 0
KCO1 030738Z 01013KT 28/12 A3009 RMK A01 T02820123  RH  037%=      5-min Rain = 0
KCO1 030739Z 01013KT 28/12 A3009 RMK A01 T02820123  RH  037%=      5-min Rain = 0
KCO1 030740Z 01015KT 28/12 A3009 RMK A01 T02820124  RH  038%=      5-min Rain = 0
KCO1 030741Z 02013KT 28/13 A3009 RMK A01 T02820125  RH  038%=      5-min Rain = 0
KCO1 030742Z 02016G21KT 28/13 A3009 RMK A01 T02820125  RH  038%=      5-min Rain = 0
KCO1 030743Z 02015KT 28/13 A3009 RMK A01 T02820126  RH  038%=      5-min Rain = 0
KCO1 030744Z 02019KT 28/13 A3009 RMK A01 T02820126  RH  038%=      5-min Rain = 0
KCO1 030745Z 02018KT 28/13 A3009 RMK A01 T02820128  RH  039%=      5-min Rain = 0
KCO1 030746Z 02015KT 28/13 A3009 RMK A01 T02810128  RH  039%=      5-min Rain = 0
KCO1 030747Z 02016KT 28/13 A3009 RMK A01 T02810129  RH  039%=      5-min Rain = 0
KCO1 030748Z 02018KT 28/13 A3009 RMK A01 T02790129  RH  039%=      5-min Rain = 0
KCO1 030749Z 02015G20KT 28/13 A3009 RMK A01 T02790130  RH  040%=      5-min Rain = 0
KCO1 030750Z 02012KT 28/13 A3009 RMK A01 T02780130  RH  040%=      5-min Rain = 0
KCO1 030751Z 02015KT 28/13 A3009 RMK A01 T02780129  RH  040%=      5-min Rain = 0
KCO1 030752Z 02017KT 28/13 A3009 RMK A01 T02780130  RH  040%=      5-min Rain = 0
KCO1 030753Z 02017G22KT 28/13 A301 RMK A01 T02770130  RH  040%=      5-min Rain = 0
KCO1 030754Z 02017KT 28/13 A301 RMK A01 T02770130  RH  040%=      5-min Rain = 0
KCO1 030755Z 03015G20KT 28/13 A301 RMK A01 T02770130  RH  040%=      5-min Rain = 0
KCO1 030756Z 02013KT 28/13 A301 RMK A01 T02770130  RH  040%=      5-min Rain = 0
KCO1 030757Z 02016KT 28/13 A301 RMK A01 T02760130  RH  040%=      5-min Rain = 0
KCO1 030758Z 02014KT 28/13 A301 RMK A01 T02760130  RH  040%=      5-min Rain = 0
KCO1 030759Z 03014G19KT 28/13 A301 RMK A01 T02760130  RH  040%=      5-min Rain = 0
KCO1 030800Z 02012KT 28/13 A301 RMK A01 T02760130  RH  040%=      5-min Rain = 0
KCO1 030801Z 02014KT 28/13 A301 RMK A01 T02760130  RH  040%=      5-min Rain = 0
KCO1 030802Z 03013G18KT 28/13 A301 RMK A01 T02760130  RH  040%=      5-min Rain = 0
KCO1 030803Z 02014KT 28/13 A301 RMK A01 T02750129  RH  040%=      5-min Rain = 0
KCO1 030804Z 02014KT 28/13 A301 RMK A01 T02750129  RH  040%=      5-min Rain = 0
KCO1 030805Z 02017KT 28/13 A301 RMK A01 T02760129  RH  040%=      5-min Rain = 0
KCO1 030806Z 02013KT 28/13 A301 RMK A01 T02750129  RH  040%=      5-min Rain = 0
KCO1 030807Z 02016KT 28/13 A301 RMK A01 T02750129  RH  040%=      5-min Rain = 0
KCO1 030808Z 02016KT 28/13 A301 RMK A01 T02750129  RH  040%=      5-min Rain = 0
KCO1 030809Z 02015KT 28/13 A301 RMK A01 T02750129  RH  040%=      5-min Rain = 0
KCO1 030810Z 02014KT 28/13 A301 RMK A01 T02750129  RH  040%=      5-min Rain = 0
KCO1 030811Z 02014KT 28/13 A301 RMK A01 T02750129  RH  040%=      5-min Rain = 0
KCO1 030812Z 02014KT 28/13 A3011 RMK A01 T02750129  RH  040%=      5-min Rain = 0
KCO1 030813Z 02015KT 28/13 A3011 RMK A01 T02750128  RH  040%=      5-min Rain = 0
KCO1 030814Z 03013KT 28/13 A3011 RMK A01 T02750129  RH  040%=      5-min Rain = 0
KCO1 030815Z 03014KT 28/13 A3011 RMK A01 T02760129  RH  040%=      5-min Rain = 0
KCO1 030816Z 03013G18KT 28/13 A3011 RMK A01 T02750129  RH  040%=      5-min Rain = 0
KCO1 030817Z 03015KT 28/13 A3011 RMK A01 T02750129  RH  040%=      5-min Rain = 0
KCO1 030818Z 03014KT 28/13 A3011 RMK A01 T02750129  RH  041%=      5-min Rain = 0
KCO1 030819Z 03012KT 28/13 A3011 RMK A01 T02750129  RH  041%=      5-min Rain = 0
KCO1 030820Z 03012KT 27/13 A301 RMK A01 T02740129  RH  041%=      5-min Rain = 0
KCO1 030821Z 03011KT 27/13 A301 RMK A01 T02740130  RH  041%=      5-min Rain = 0
KCO1 030822Z 03016G21KT 27/13 A301 RMK A01 T02740131  RH  041%=      5-min Rain = 0
KCO1 030823Z 03018KT 27/13 A3011 RMK A01 T02730132  RH  042%=      5-min Rain = 0
KCO1 030824Z 02016KT 27/13 A3011 RMK A01 T02730134  RH  042%=      5-min Rain = 0
KCO1 030825Z 02015KT 27/14 A3011 RMK A01 T02720135  RH  043%=      5-min Rain = 0
KCO1 030826Z 03014KT 27/14 A3011 RMK A01 T02710136  RH  043%=      5-min Rain = 0
KCO1 030827Z 03015KT 27/14 A3011 RMK A01 T02700137  RH  044%=      5-min Rain = 0
KCO1 030828Z 03016G21KT 27/14 A3011 RMK A01 T02690137  RH  044%=      5-min Rain = 0
KCO1 030829Z 02015KT 27/14 A3011 RMK A01 T02690138  RH  044%=      5-min Rain = 0
KCO1 030830Z 03015KT 27/14 A3011 RMK A01 T02680138  RH  045%=      5-min Rain = 0
KCO1 030831Z 03013KT 27/14 A3011 RMK A01 T02680138  RH  045%=      5-min Rain = 0
KCO1 030832Z 02014KT 27/14 A3011 RMK A01 T02670138  RH  045%=      5-min Rain = 0
KCO1 030833Z 02014G20KT 27/14 A3011 RMK A01 T02670139  RH  045%=      5-min Rain = 0
KCO1 030834Z 02013KT 27/14 A3011 RMK A01 T02660138  RH  045%=      5-min Rain = 0
KCO1 030835Z 02013KT 27/14 A3011 RMK A01 T02660139  RH  045%=      5-min Rain = 0
KCO1 030836Z 02013KT 27/14 A3011 RMK A01 T02660139  RH  046%=      5-min Rain = 0
KCO1 030837Z 02015KT 27/14 A3011 RMK A01 T02650139  RH  046%=      5-min Rain = 0
KCO1 030838Z 02014KT 27/14 A3011 RMK A01 T02650139  RH  046%=      5-min Rain = 0
KCO1 030839Z 02016KT 26/14 A3011 RMK A01 T02640139  RH  046%=      5-min Rain = 0
KCO1 030840Z 02017KT 26/14 A3011 RMK A01 T02640140  RH  046%=      5-min Rain = 0
KCO1 030841Z 02016KT 26/14 A3011 RMK A01 T02640140  RH  046%=      5-min Rain = 0
KCO1 030842Z 03013KT 26/14 A3011 RMK A01 T02640140  RH  047%=      5-min Rain = 0
KCO1 030843Z 02014KT 26/14 A3011 RMK A01 T02630140  RH  047%=      5-min Rain = 0
KCO1 030844Z 01015KT 26/14 A3011 RMK A01 T02630141  RH  047%=      5-min Rain = 0
KCO1 030845Z 02014KT 26/14 A3011 RMK A01 T02630141  RH  047%=      5-min Rain = 0
KCO1 030846Z 01015G20KT 26/14 A3012 RMK A01 T02630141  RH  047%=      5-min Rain = 0
KCO1 030847Z 01016G22KT 26/14 A3012 RMK A01 T02620141  RH  047%=      5-min Rain = 0
KCO1 030848Z 02017KT 26/14 A3012 RMK A01 T02620142  RH  047%=      5-min Rain = 0
KCO1 030849Z 01014KT 26/14 A3012 RMK A01 T02620142  RH  048%=      5-min Rain = 0
KCO1 030850Z 01012KT 26/14 A3012 RMK A01 T02610141  RH  048%=      5-min Rain = 0
KCO1 030851Z 01013KT 26/14 A3012 RMK A01 T02610141  RH  048%=      5-min Rain = 0
KCO1 030852Z 01015G21KT 26/14 A3012 RMK A01 T02610141  RH  048%=      5-min Rain = 0
KCO1 030853Z 01017KT 26/14 A3012 RMK A01 T02610142  RH  048%=      5-min Rain = 0
KCO1 030854Z 01017KT 26/14 A3012 RMK A01 T02600142  RH  048%=      5-min Rain = 0
KCO1 030855Z 01015KT 26/14 A3012 RMK A01 T02600142  RH  048%=      5-min Rain = 0
KCO1 030856Z 01012KT 26/14 A3011 RMK A01 T02600142  RH  048%=      5-min Rain = 0
KCO1 030857Z 01012KT 26/14 A3011 RMK A01 T02600142  RH  048%=      5-min Rain = 0
KCO1 030858Z 01013KT 26/14 A3011 RMK A01 T02600142  RH  048%=      5-min Rain = 0
KCO1 030859Z 01016KT 26/14 A3011 RMK A01 T02590143  RH  049%=      5-min Rain = 0
KCO1 030900Z 02014KT 26/14 A3011 RMK A01 T02590143  RH  049%=      5-min Rain = 0
KCO1 030901Z 01012KT 26/14 A3011 RMK A01 T02580143  RH  049%=      5-min Rain = 0
KCO1 030902Z 02013KT 26/14 A3011 RMK A01 T02580144  RH  049%=      5-min Rain = 0
KCO1 030903Z 02014KT 26/14 A3011 RMK A01 T02580144  RH  049%=      5-min Rain = 0
KCO1 030904Z 02016KT 26/14 A3011 RMK A01 T02570144  RH  050%=      5-min Rain = 0
KCO1 030905Z 01016KT 26/15 A3011 RMK A01 T02570145  RH  050%=      5-min Rain = 0
KCO1 030906Z 02015KT 26/15 A3011 RMK A01 T02560146  RH  050%=      5-min Rain = 0
KCO1 030907Z 02016KT 26/15 A3011 RMK A01 T02560146  RH  051%=      5-min Rain = 0
KCO1 030908Z 02013G18KT 26/15 A3011 RMK A01 T02560146  RH  051%=      5-min Rain = 0
KCO1 030909Z 02012KT 26/15 A301 RMK A01 T02560147  RH  051%=      5-min Rain = 0
KCO1 030910Z 02013KT 26/15 A301 RMK A01 T02550146  RH  051%=      5-min Rain = 0
KCO1 030911Z 02013KT 26/15 A301 RMK A01 T02550147  RH  051%=      5-min Rain = 0
KCO1 030912Z 02014G19KT 25/15 A301 RMK A01 T02540147  RH  051%=      5-min Rain = 0
KCO1 030913Z 02015KT 25/15 A301 RMK A01 T02540147  RH  052%=      5-min Rain = 0
KCO1 030914Z 02013KT 25/15 A301 RMK A01 T02540147  RH  052%=      5-min Rain = 0
KCO1 030915Z 02017KT 25/15 A301 RMK A01 T02530147  RH  052%=      5-min Rain = 0
KCO1 030916Z 02016KT 25/15 A301 RMK A01 T02540148  RH  052%=      5-min Rain = 0
KCO1 030917Z 02013KT 25/15 A301 RMK A01 T02530147  RH  052%=      5-min Rain = 0
KCO1 030918Z 02017KT 25/15 A301 RMK A01 T02530148  RH  052%=      5-min Rain = 0
KCO1 030919Z 02016KT 25/15 A301 RMK A01 T02530148  RH  052%=      5-min Rain = 0
KCO1 030920Z 02016KT 25/15 A301 RMK A01 T02530148  RH  052%=      5-min Rain = 0
KCO1 030921Z 03014KT 25/15 A301 RMK A01 T02530148  RH  052%=      5-min Rain = 0
KCO1 030922Z 03015KT 25/15 A301 RMK A01 T02530148  RH  052%=      5-min Rain = 0
KCO1 030923Z 03013KT 25/15 A301 RMK A01 T02530148  RH  052%=      5-min Rain = 0
KCO1 030924Z 03015KT 25/15 A301 RMK A01 T02530148  RH  052%=      5-min Rain = 0
KCO1 030925Z 03017G22KT 25/15 A301 RMK A01 T02530148  RH  052%=      5-min Rain = 0
KCO1 030926Z 03016KT 25/15 A301 RMK A01 T02520148  RH  052%=      5-min Rain = 0
KCO1 030927Z 03015KT 25/15 A301 RMK A01 T02530148  RH  052%=      5-min Rain = 0
KCO1 030928Z 03012G18KT 25/15 A301 RMK A01 T02520148  RH  052%=      5-min Rain = 0
KCO1 030929Z 03015KT 25/15 A301 RMK A01 T02520148  RH  052%=      5-min Rain = 0
KCO1 030930Z 03013KT 25/15 A301 RMK A01 T02520148  RH  052%=      5-min Rain = 0
KCO1 030931Z 03014KT 25/15 A301 RMK A01 T02520148  RH  052%=      5-min Rain = 0
KCO1 030932Z 03017KT 25/15 A301 RMK A01 T02520148  RH  052%=      5-min Rain = 0
KCO1 030933Z 03015KT 25/15 A301 RMK A01 T02520148  RH  052%=      5-min Rain = 0
KCO1 030934Z 03014KT 25/15 A301 RMK A01 T02520147  RH  052%=      5-min Rain = 0
KCO1 030935Z 03013KT 25/15 A301 RMK A01 T02520147  RH  052%=      5-min Rain = 0
KCO1 030936Z 03013G18KT 25/15 A301 RMK A01 T02520148  RH  052%=      5-min Rain = 0
KCO1 030937Z 03014KT 25/15 A301 RMK A01 T02520147  RH  052%=      5-min Rain = 0
KCO1 030938Z 03012KT 25/15 A301 RMK A01 T02520147  RH  052%=      5-min Rain = 0
KCO1 030939Z 03012KT 25/15 A301 RMK A01 T02520147  RH  052%=      5-min Rain = 0
KCO1 030940Z 03012KT 25/15 A301 RMK A01 T02520147  RH  052%=      5-min Rain = 0
KCO1 030941Z 03014KT 25/15 A301 RMK A01 T02520147  RH  052%=      5-min Rain = 0
KCO1 030942Z 04014KT 25/15 A301 RMK A01 T02520147  RH  052%=      5-min Rain = 0
KCO1 030943Z 04014KT 25/15 A301 RMK A01 T02520147  RH  052%=      5-min Rain = 0
KCO1 030944Z 04012KT 25/15 A301 RMK A01 T02520147  RH  052%=      5-min Rain = 0
KCO1 030945Z 03011G18KT 25/15 A301 RMK A01 T02520147  RH  052%=      5-min Rain = 0
KCO1 030946Z 03015KT 25/15 A301 RMK A01 T02520147  RH  052%=      5-min Rain = 0
KCO1 030947Z 04013KT 25/15 A301 RMK A01 T02520147  RH  052%=      5-min Rain = 0
KCO1 030948Z 04016KT 25/15 A301 RMK A01 T02520147  RH  052%=      5-min Rain = 0
KCO1 030949Z 04011KT 25/15 A301 RMK A01 T02520147  RH  052%=      5-min Rain = 0
KCO1 030950Z 04013KT 25/15 A3011 RMK A01 T02520147  RH  052%=      5-min Rain = 0
KCO1 030951Z 04014KT 25/15 A3011 RMK A01 T02520147  RH  052%=      5-min Rain = 0
KCO1 030952Z 04015KT 25/15 A3011 RMK A01 T02510148  RH  053%=      5-min Rain = 0
KCO1 030953Z 04017KT 25/15 A3011 RMK A01 T02510147  RH  053%=      5-min Rain = 0
KCO1 030954Z 05013G19KT 25/15 A3011 RMK A01 T02500148  RH  053%=      5-min Rain = 0
KCO1 030955Z 04015KT 25/15 A301 RMK A01 T02490148  RH  053%=      5-min Rain = 0
KCO1 030956Z 05014KT 25/15 A3011 RMK A01 T02490148  RH  053%=      5-min Rain = 0
KCO1 030957Z 05013KT 25/15 A301 RMK A01 T02480148  RH  054%=      5-min Rain = 0
KCO1 030958Z 06015G24KT 25/15 A301 RMK A01 T02480148  RH  054%=      5-min Rain = 0
KCO1 030959Z 05018KT 25/15 A3011 RMK A01 T02480148  RH  054%=      5-min Rain = 0
KCO1 031000Z 05016G23KT 25/15 A3011 RMK A01 T02480148  RH  054%=      5-min Rain = 0
KCO1 031001Z 05017G22KT 25/15 A3011 RMK A01 T02470148  RH  054%=      5-min Rain = 0
KCO1 031002Z 05016KT 25/15 A3011 RMK A01 T02470149  RH  054%=      5-min Rain = 0
KCO1 031003Z 05014KT 25/15 A3011 RMK A01 T02470149  RH  054%=      5-min Rain = 0
KCO1 031004Z 05016G21KT 25/15 A3011 RMK A01 T02470150  RH  055%=      5-min Rain = 0
KCO1 031005Z 06016G21KT 25/15 A3011 RMK A01 T02460150  RH  055%=      5-min Rain = 0
KCO1 031006Z 06017KT 25/15 A3011 RMK A01 T02450151  RH  056%=      5-min Rain = 0
KCO1 031007Z 06017G23KT 24/15 A3011 RMK A01 T02440151  RH  056%=      5-min Rain = 0
KCO1 031008Z 06017KT 24/15 A3011 RMK A01 T02440152  RH  057%=      5-min Rain = 0
KCO1 031009Z 06015KT 24/15 A3011 RMK A01 T02420152  RH  057%=      5-min Rain = 0
KCO1 031010Z 06016KT 24/15 A3011 RMK A01 T02420154  RH  058%=      5-min Rain = 0
KCO1 031011Z 06017KT 24/15 A3011 RMK A01 T02410154  RH  058%=      5-min Rain = 0
KCO1 031012Z 06016G22KT 24/15 A3011 RMK A01 T02400154  RH  059%=      5-min Rain = 0
KCO1 031013Z 06017KT 24/15 A3011 RMK A01 T02400154  RH  059%=      5-min Rain = 0
KCO1 031014Z 06017KT 24/16 A3011 RMK A01 T02390155  RH  059%=      5-min Rain = 0
KCO1 031015Z 06017KT 24/16 A3011 RMK A01 T02380155  RH  060%=      5-min Rain = 0
KCO1 031016Z 06014KT 24/16 A3011 RMK A01 T02380156  RH  060%=      5-min Rain = 0
KCO1 031017Z 06015KT 24/16 A3011 RMK A01 T02370157  RH  061%=      5-min Rain = 0
KCO1 031018Z 06014KT 24/16 A3011 RMK A01 T02360157  RH  061%=      5-min Rain = 0
KCO1 031019Z 06013KT 24/16 A3011 RMK A01 T02350159  RH  062%=      5-min Rain = 0
KCO1 031020Z 06014KT 23/16 A3011 RMK A01 T02340159  RH  062%=      5-min Rain = 0
KCO1 031021Z 06014KT 23/16 A3011 RMK A01 T02340159  RH  063%=      5-min Rain = 0
KCO1 031022Z 06012KT 23/16 A3011 RMK A01 T02340159  RH  063%=      5-min Rain = 0
KCO1 031023Z 06015KT 23/16 A3011 RMK A01 T02330159  RH  063%=      5-min Rain = 0
KCO1 031024Z 06015KT 23/16 A3011 RMK A01 T02330160  RH  063%=      5-min Rain = 0
KCO1 031025Z 06014KT 23/16 A3011 RMK A01 T02330160  RH  063%=      5-min Rain = 0
KCO1 031026Z 06014KT 23/16 A301 RMK A01 T02330161  RH  064%=      5-min Rain = 0
KCO1 031027Z 06013G18KT 23/16 A3011 RMK A01 T02330161  RH  064%=      5-min Rain = 0
KCO1 031028Z 07012KT 23/16 A3011 RMK A01 T02330160  RH  064%=      5-min Rain = 0
KCO1 031029Z 07010KT 23/16 A3011 RMK A01 T02320160  RH  064%=      5-min Rain = 0
KCO1 031030Z 07012KT 23/16 A3011 RMK A01 T02320160  RH  064%=      5-min Rain = 0
KCO1 031031Z 06010G15KT 23/16 A3011 RMK A01 T02320160  RH  064%=      5-min Rain = 0
KCO1 031032Z 07010KT 23/16 A3011 RMK A01 T02330161  RH  064%=      5-min Rain = 0
KCO1 031033Z 07011KT 23/16 A3011 RMK A01 T02320161  RH  064%=      5-min Rain = 0
KCO1 031034Z 07011KT 23/16 A3011 RMK A01 T02320161  RH  064%=      5-min Rain = 0
KCO1 031035Z 07012KT 23/16 A3011 RMK A01 T02310161  RH  064%=      5-min Rain = 0
KCO1 031036Z 07012KT 23/16 A3011 RMK A01 T02310161  RH  064%=      5-min Rain = 0
KCO1 031037Z 07011KT 23/16 A3011 RMK A01 T02320161  RH  064%=      5-min Rain = 0
KCO1 031038Z 07013KT 23/16 A3011 RMK A01 T02320161  RH  064%=      5-min Rain = 0
KCO1 031039Z 07013KT 23/16 A3011 RMK A01 T02310161  RH  064%=      5-min Rain = 0
KCO1 031040Z 07013KT 23/16 A3011 RMK A01 T02310160  RH  064%=      5-min Rain = 0
KCO1 031041Z 07013KT 23/16 A3011 RMK A01 T02310160  RH  064%=      5-min Rain = 0
KCO1 031042Z 07010KT 23/16 A3011 RMK A01 T02310161  RH  065%=      5-min Rain = 0
KCO1 031043Z 07008KT 23/16 A3011 RMK A01 T02310161  RH  065%=      5-min Rain = 0
KCO1 031044Z 07009KT 23/16 A3011 RMK A01 T02310161  RH  065%=      5-min Rain = 0
KCO1 031045Z 07010KT 23/16 A3011 RMK A01 T02310161  RH  065%=      5-min Rain = 0
KCO1 031046Z 07009KT 23/16 A3011 RMK A01 T02310161  RH  065%=      5-min Rain = 0
KCO1 031047Z 07007KT 23/16 A3011 RMK A01 T02310161  RH  065%=      5-min Rain = 0
KCO1 031048Z 06006KT 23/16 A3011 RMK A01 T02310161  RH  065%=      5-min Rain = 0
KCO1 031049Z 07005KT 23/16 A3011 RMK A01 T02300161  RH  065%=      5-min Rain = 0
KCO1 031050Z 06006KT 23/16 A3011 RMK A01 T02300161  RH  065%=      5-min Rain = 0
KCO1 031051Z 06007KT 23/16 A3012 RMK A01 T02300161  RH  065%=      5-min Rain = 0
KCO1 031052Z 07005KT 23/16 A3012 RMK A01 T02300161  RH  065%=      5-min Rain = 0
KCO1 031053Z 05006KT 23/16 A3012 RMK A01 T02300161  RH  065%=      5-min Rain = 0
KCO1 031054Z 04006KT 23/16 A3012 RMK A01 T02300161  RH  065%=      5-min Rain = 0
KCO1 031055Z 05006KT 23/16 A3012 RMK A01 T02300161  RH  065%=      5-min Rain = 0
KCO1 031056Z 04006KT 23/16 A3012 RMK A01 T02300161  RH  065%=      5-min Rain = 0
KCO1 031057Z 04007KT 23/16 A3012 RMK A01 T02300161  RH  065%=      5-min Rain = 0
KCO1 031058Z 05006KT 23/16 A3012 RMK A01 T02290161  RH  065%=      5-min Rain = 0
KCO1 031059Z 06006KT 23/16 A3012 RMK A01 T02300161  RH  065%=      5-min Rain = 0
KCO1 031100Z 06007KT 23/16 A3012 RMK A01 T02300160  RH  065%=      5-min Rain = 0
KCO1 031101Z 06007KT 23/16 A3012 RMK A01 T02300160  RH  065%=      5-min Rain = 0
KCO1 031102Z 06007KT 23/16 A3012 RMK A01 T02300160  RH  065%=      5-min Rain = 0
KCO1 031103Z 05007KT 23/16 A3012 RMK A01 T02300160  RH  065%=      5-min Rain = 0
KCO1 031104Z 06007KT 23/16 A3012 RMK A01 T02300160  RH  065%=      5-min Rain = 0
KCO1 031105Z 07009KT 23/16 A3012 RMK A01 T02300159  RH  064%=      5-min Rain = 0
KCO1 031106Z 06009KT 23/16 A3012 RMK A01 T02290158  RH  064%=      5-min Rain = 0
KCO1 031107Z 06008KT 23/16 A3011 RMK A01 T02300158  RH  064%=      5-min Rain = 0
KCO1 031108Z 06009KT 23/16 A3011 RMK A01 T02300158  RH  064%=      5-min Rain = 0
KCO1 031109Z 06008KT 23/16 A3011 RMK A01 T02300158  RH  064%=      5-min Rain = 0
KCO1 031110Z 07008KT 23/16 A3011 RMK A01 T02300158  RH  064%=      5-min Rain = 0
KCO1 031111Z 07009KT 23/16 A3011 RMK A01 T02300158  RH  064%=      5-min Rain = 0
KCO1 031112Z 07007KT 23/16 A3011 RMK A01 T02290158  RH  064%=      5-min Rain = 0
KCO1 031113Z 07008KT 23/16 A3011 RMK A01 T02290158  RH  064%=      5-min Rain = 0
KCO1 031114Z 07009KT 23/16 A3011 RMK A01 T02290158  RH  064%=      5-min Rain = 0
KCO1 031115Z 07007KT 23/16 A3011 RMK A01 T02280158  RH  064%=      5-min Rain = 0
KCO1 031116Z 06006KT 23/16 A3011 RMK A01 T02280158  RH  064%=      5-min Rain = 0
KCO1 031117Z 07006KT 23/16 A3011 RMK A01 T02280158  RH  065%=      5-min Rain = 0
KCO1 031118Z 06005KT 23/16 A3011 RMK A01 T02280158  RH  065%=      5-min Rain = 0
KCO1 031119Z 07005KT 23/16 A3011 RMK A01 T02280158  RH  065%=      5-min Rain = 0
KCO1 031120Z 06006KT 23/16 A3011 RMK A01 T02280158  RH  065%=      5-min Rain = 0
KCO1 031121Z 07006KT 23/16 A3011 RMK A01 T02270158  RH  065%=      5-min Rain = 0
KCO1 031122Z 08005KT 23/16 A3011 RMK A01 T02270158  RH  065%=      5-min Rain = 0
KCO1 031123Z 08006KT 23/16 A301 RMK A01 T02270158  RH  065%=      5-min Rain = 0
KCO1 031124Z 07007KT 23/16 A301 RMK A01 T02270158  RH  065%=      5-min Rain = 0
KCO1 031125Z 07007KT 23/16 A301 RMK A01 T02270158  RH  065%=      5-min Rain = 0
KCO1 031126Z 08007KT 23/16 A301 RMK A01 T02270158  RH  065%=      5-min Rain = 0
KCO1 031127Z 07006KT 23/16 A301 RMK A01 T02270157  RH  065%=      5-min Rain = 0
KCO1 031128Z 08006KT 23/16 A301 RMK A01 T02270158  RH  065%=      5-min Rain = 0
KCO1 031129Z 08008KT 23/16 A301 RMK A01 T02270157  RH  065%=      5-min Rain = 0
KCO1 031130Z 08009KT 23/16 A301 RMK A01 T02270157  RH  064%=      5-min Rain = 0
KCO1 031131Z 07007KT 23/16 A301 RMK A01 T02270156  RH  064%=      5-min Rain = 0
KCO1 031132Z 08006KT 23/16 A301 RMK A01 T02270156  RH  064%=      5-min Rain = 0
KCO1 031133Z 09008KT 23/16 A301 RMK A01 T02270156  RH  064%=      5-min Rain = 0
KCO1 031134Z 09008KT 23/16 A301 RMK A01 T02270156  RH  064%=      5-min Rain = 0
KCO1 031135Z 09008KT 23/16 A301 RMK A01 T02270156  RH  064%=      5-min Rain = 0
KCO1 031136Z 09006KT 23/16 A301 RMK A01 T02270156  RH  064%=      5-min Rain = 0
KCO1 031137Z 08006KT 23/16 A301 RMK A01 T02270156  RH  064%=      5-min Rain = 0
KCO1 031138Z 08005KT 23/16 A301 RMK A01 T02270156  RH  064%=      5-min Rain = 0
KCO1 031139Z 09006KT 23/16 A301 RMK A01 T02270156  RH  064%=      5-min Rain = 0
KCO1 031140Z 09005KT 23/16 A301 RMK A01 T02270155  RH  064%=      5-min Rain = 0
KCO1 031141Z 09006KT 23/16 A301 RMK A01 T02270155  RH  064%=      5-min Rain = 0
KCO1 031142Z 09006KT 23/16 A301 RMK A01 T02270156  RH  064%=      5-min Rain = 0
KCO1 031143Z 09007KT 23/16 A301 RMK A01 T02270156  RH  064%=      5-min Rain = 0
KCO1 031144Z 08008KT 23/16 A301 RMK A01 T02270156  RH  064%=      5-min Rain = 0
KCO1 031145Z 08008KT 23/16 A301 RMK A01 T02270156  RH  064%=      5-min Rain = 0
KCO1 031146Z 09008KT 23/16 A3009 RMK A01 T02270156  RH  064%=      5-min Rain = 0
KCO1 031147Z 08009KT 23/16 A3009 RMK A01 T02270156  RH  064%=      5-min Rain = 0
KCO1 031148Z 08009KT 23/16 A301 RMK A01 T02270156  RH  064%=      5-min Rain = 0
KCO1 031149Z 08009KT 23/16 A301 RMK A01 T02270156  RH  064%=      5-min Rain = 0
KCO1 031150Z 08007KT 23/16 A301 RMK A01 T02270156  RH  064%=      5-min Rain = 0
KCO1 031151Z 09007KT 23/16 A301 RMK A01 T02270156  RH  064%=      5-min Rain = 0
KCO1 031152Z 09006KT 23/16 A301 RMK A01 T02270156  RH  064%=      5-min Rain = 0
KCO1 031153Z 09005KT 23/16 A301 RMK A01 T02270156  RH  064%=      5-min Rain = 0
KCO1 031154Z 09005KT 23/16 A301 RMK A01 T02270156  RH  064%=      5-min Rain = 0
KCO1 031155Z 10005KT 23/16 A301 RMK A01 T02270156  RH  064%=      5-min Rain = 0
KCO1 031156Z 09007KT 23/16 A301 RMK A01 T02270156  RH  064%=      5-min Rain = 0
KCO1 031157Z 09006KT 23/16 A301 RMK A01 T02270156  RH  064%=      5-min Rain = 0
KCO1 031158Z 10004KT 23/16 A301 RMK A01 T02270156  RH  064%=      5-min Rain = 0
KCO1 031159Z 10005KT 23/16 A301 RMK A01 T02270156  RH  064%=      5-min Rain = 0
KCO1 031200Z 10006KT 23/16 A301 RMK A01 T02270156  RH  064%=      5-min Rain = 0
KCO1 031201Z 10005KT 23/16 A301 RMK A01 T02260156  RH  064%=      5-min Rain = 0
KCO1 031202Z 10005KT 23/16 A301 RMK A01 T02270156  RH  064%=      5-min Rain = 0
KCO1 031203Z 10004KT 23/16 A301 RMK A01 T02260156  RH  064%=      5-min Rain = 0
KCO1 031204Z 10002KT 23/16 A301 RMK A01 T02260156  RH  064%=      5-min Rain = 0
KCO1 031205Z 09003KT 23/16 A301 RMK A01 T02260156  RH  064%=      5-min Rain = 0
KCO1 031206Z 08004KT 23/16 A301 RMK A01 T02260156  RH  064%=      5-min Rain = 0
KCO1 031207Z 08004KT 23/16 A301 RMK A01 T02260156  RH  064%=      5-min Rain = 0
KCO1 031208Z 09003KT 23/16 A3011 RMK A01 T02260156  RH  064%=      5-min Rain = 0
KCO1 031209Z 10003KT 23/16 A3011 RMK A01 T02260156  RH  065%=      5-min Rain = 0
KCO1 031210Z 09003KT 23/16 A3011 RMK A01 T02260156  RH  064%=      5-min Rain = 0
KCO1 031211Z 09002KT 23/16 A3011 RMK A01 T02260156  RH  065%=      5-min Rain = 0
KCO1 031212Z 07002KT 23/16 A3011 RMK A01 T02260156  RH  065%=      5-min Rain = 0
KCO1 031213Z 06002KT 23/16 A3011 RMK A01 T02260156  RH  065%=      5-min Rain = 0
KCO1 031214Z 05002KT 23/16 A3011 RMK A01 T02260156  RH  065%=      5-min Rain = 0
KCO1 031215Z 04002KT 23/16 A3011 RMK A01 T02260156  RH  065%=      5-min Rain = 0
KCO1 031216Z 05002KT 23/16 A3011 RMK A01 T02260156  RH  064%=      5-min Rain = 0
KCO1 031217Z 05002KT 23/16 A3011 RMK A01 T02260156  RH  064%=      5-min Rain = 0
KCO1 031218Z 07002KT 23/16 A3011 RMK A01 T02260156  RH  064%=      5-min Rain = 0
KCO1 031219Z 07002KT 23/16 A3011 RMK A01 T02260155  RH  064%=      5-min Rain = 0
KCO1 031220Z 09001KT 23/16 A3011 RMK A01 T02260155  RH  064%=      5-min Rain = 0
KCO1 031221Z 09001KT 23/16 A3011 RMK A01 T02260155  RH  064%=      5-min Rain = 0
KCO1 031222Z 10001KT 23/16 A3011 RMK A01 T02260155  RH  064%=      5-min Rain = 0
KCO1 031223Z 09002KT 23/16 A3011 RMK A01 T02260155  RH  064%=      5-min Rain = 0
KCO1 031224Z 12001KT 23/16 A3011 RMK A01 T02260155  RH  064%=      5-min Rain = 0
KCO1 031225Z 10001KT 23/16 A3011 RMK A01 T02260155  RH  064%=      5-min Rain = 0
KCO1 031226Z 10001KT 23/16 A3011 RMK A01 T02260155  RH  064%=      5-min Rain = 0
KCO1 031227Z 10001KT 23/16 A3011 RMK A01 T02260155  RH  064%=      5-min Rain = 0
KCO1 031228Z 09000KT 23/16 A3011 RMK A01 T02270156  RH  064%=      5-min Rain = 0
KCO1 031229Z 07001KT 23/16 A3011 RMK A01 T02260155  RH  064%=      5-min Rain = 0
KCO1 031230Z 06001KT 23/16 A3011 RMK A01 T02260155  RH  064%=      5-min Rain = 0
KCO1 031231Z 06001KT 23/16 A3011 RMK A01 T02270155  RH  064%=      5-min Rain = 0
KCO1 031232Z 00000KT 23/16 A3011 RMK A01 T02270155  RH  064%=      5-min Rain = 0
KCO1 031233Z 00000KT 23/16 A3011 RMK A01 T02270155  RH  064%=      5-min Rain = 0
KCO1 031234Z 00000KT 23/16 A3011 RMK A01 T02270155  RH  064%=      5-min Rain = 0
KCO1 031235Z 00000KT 23/16 A3011 RMK A01 T02270155  RH  064%=      5-min Rain = 0
KCO1 031236Z 00000KT 23/16 A3012 RMK A01 T02270155  RH  064%=      5-min Rain = 0
KCO1 031237Z 00000KT 23/16 A3012 RMK A01 T02270155  RH  064%=      5-min Rain = 0
KCO1 031238Z 17001KT 23/16 A3012 RMK A01 T02270155  RH  064%=      5-min Rain = 0
KCO1 031239Z 17001KT 23/16 A3012 RMK A01 T02280155  RH  063%=      5-min Rain = 0
KCO1 031240Z 17000KT 23/16 A3012 RMK A01 T02280155  RH  063%=      5-min Rain = 0
KCO1 031241Z 05000KT 23/15 A3012 RMK A01 T02280154  RH  063%=      5-min Rain = 0
KCO1 031242Z 04001KT 23/15 A3012 RMK A01 T02280154  RH  063%=      5-min Rain = 0
KCO1 031243Z 04000KT 23/15 A3012 RMK A01 T02280154  RH  063%=      5-min Rain = 0
KCO1 031244Z 00000KT 23/16 A3012 RMK A01 T02280155  RH  063%=      5-min Rain = 0
KCO1 031245Z 34001KT 23/16 A3012 RMK A01 T02280155  RH  063%=      5-min Rain = 0
KCO1 031246Z 32001KT 23/16 A3013 RMK A01 T02290155  RH  063%=      5-min Rain = 0
KCO1 031247Z 31001KT 23/16 A3013 RMK A01 T02290155  RH  063%=      5-min Rain = 0
KCO1 031248Z 30002KT 23/16 A3013 RMK A01 T02290155  RH  063%=      5-min Rain = 0
KCO1 031249Z 30001KT 23/16 A3013 RMK A01 T02290155  RH  063%=      5-min Rain = 0
KCO1 031250Z 22002KT 23/16 A3013 RMK A01 T02290155  RH  063%=      5-min Rain = 0
KCO1 031251Z 21002KT 23/16 A3013 RMK A01 T02290155  RH  063%=      5-min Rain = 0
KCO1 031252Z 22001KT 23/15 A3013 RMK A01 T02300154  RH  063%=      5-min Rain = 0
KCO1 031253Z 22001KT 23/15 A3013 RMK A01 T02300154  RH  062%=      5-min Rain = 0
KCO1 031254Z 23002KT 23/16 A3013 RMK A01 T02300155  RH  062%=      5-min Rain = 0
KCO1 031255Z 23002KT 23/16 A3013 RMK A01 T02300155  RH  062%=      5-min Rain = 0
KCO1 031256Z 23002KT 23/16 A3013 RMK A01 T02310155  RH  062%=      5-min Rain = 0
KCO1 031257Z 23002KT 23/15 A3013 RMK A01 T02310154  RH  062%=      5-min Rain = 0
KCO1 031258Z 23001KT 23/15 A3013 RMK A01 T02300154  RH  062%=      5-min Rain = 0
KCO1 031259Z 23001KT 23/15 A3013 RMK A01 T02310154  RH  062%=      5-min Rain = 0
KCO1 031300Z 25001KT 23/15 A3013 RMK A01 T02300154  RH  062%=      5-min Rain = 0
KCO1 031301Z 26001KT 23/15 A3013 RMK A01 T02310154  RH  062%=      5-min Rain = 0
KCO1 031302Z 26001KT 23/15 A3013 RMK A01 T02300154  RH  062%=      5-min Rain = 0
KCO1 031303Z 27002KT 23/15 A3013 RMK A01 T02310154  RH  062%=      5-min Rain = 0
KCO1 031304Z 26002KT 23/15 A3013 RMK A01 T02310154  RH  062%=      5-min Rain = 0
KCO1 031305Z 24002KT 23/15 A3013 RMK A01 T02310154  RH  062%=      5-min Rain = 0
KCO1 031306Z 25002KT 23/15 A3013 RMK A01 T02310154  RH  062%=      5-min Rain = 0
KCO1 031307Z 26002KT 23/15 A3013 RMK A01 T02320154  RH  062%=      5-min Rain = 0
KCO1 031308Z 28002KT 23/15 A3013 RMK A01 T02320154  RH  062%=      5-min Rain = 0
KCO1 031309Z 27001KT 23/16 A3013 RMK A01 T02320155  RH  062%=      5-min Rain = 0
KCO1 031310Z 28001KT 23/16 A3013 RMK A01 T02320155  RH  062%=      5-min Rain = 0
KCO1 031311Z 31002KT 23/16 A3013 RMK A01 T02320155  RH  062%=      5-min Rain = 0
KCO1 031312Z 31002KT 23/16 A3013 RMK A01 T02320155  RH  062%=      5-min Rain = 0
KCO1 031313Z 30002KT 23/16 A3013 RMK A01 T02320155  RH  062%=      5-min Rain = 0
KCO1 031314Z 30002KT 23/16 A3013 RMK A01 T02320155  RH  062%=      5-min Rain = 0
KCO1 031315Z 31001KT 23/16 A3013 RMK A01 T02330155  RH  062%=      5-min Rain = 0
KCO1 031316Z 34001KT 23/16 A3013 RMK A01 T02320155  RH  062%=      5-min Rain = 0
KCO1 031317Z 34001KT 23/16 A3013 RMK A01 T02320155  RH  062%=      5-min Rain = 0
KCO1 031318Z 34000KT 23/16 A3013 RMK A01 T02320155  RH  062%=      5-min Rain = 0
KCO1 031319Z 34000KT 23/16 A3013 RMK A01 T02320155  RH  062%=      5-min Rain = 0
KCO1 031320Z 00000KT 23/16 A3013 RMK A01 T02320155  RH  062%=      5-min Rain = 0
KCO1 031321Z 00000KT 23/16 A3013 RMK A01 T02320155  RH  062%=      5-min Rain = 0
KCO1 031322Z 00000KT 23/16 A3013 RMK A01 T02330155  RH  062%=      5-min Rain = 0
KCO1 031323Z 00000KT 23/15 A3013 RMK A01 T02330154  RH  061%=      5-min Rain = 0
KCO1 031324Z 17000KT 23/15 A3013 RMK A01 T02330154  RH  061%=      5-min Rain = 0
KCO1 031325Z 16001KT 23/15 A3013 RMK A01 T02330154  RH  061%=      5-min Rain = 0
KCO1 031326Z 16000KT 23/15 A3013 RMK A01 T02330153  RH  061%=      5-min Rain = 0
KCO1 031327Z 16000KT 23/15 A3013 RMK A01 T02330152  RH  060%=      5-min Rain = 0
KCO1 031328Z 00000KT 23/15 A3013 RMK A01 T02330152  RH  060%=      5-min Rain = 0
KCO1 031329Z 00000KT 23/15 A3013 RMK A01 T02340152  RH  060%=      5-min Rain = 0
KCO1 031330Z 01000KT 23/15 A3013 RMK A01 T02340153  RH  060%=      5-min Rain = 0
KCO1 031331Z 00002KT 23/15 A3013 RMK A01 T02340154  RH  061%=      5-min Rain = 0
KCO1 031332Z 01002KT 24/16 A3013 RMK A01 T02350155  RH  061%=      5-min Rain = 0
KCO1 031333Z 00002KT 23/16 A3013 RMK A01 T02340155  RH  061%=      5-min Rain = 0
KCO1 031334Z 00003KT 23/16 A3013 RMK A01 T02340155  RH  061%=      5-min Rain = 0
KCO1 031335Z 36003KT 23/16 A3013 RMK A01 T02340155  RH  061%=      5-min Rain = 0
KCO1 031336Z 00003KT 23/16 A3013 RMK A01 T02340155  RH  061%=      5-min Rain = 0
KCO1 031337Z 00003KT 23/16 A3013 RMK A01 T02340155  RH  061%=      5-min Rain = 0
KCO1 031338Z 01004KT 23/16 A3013 RMK A01 T02340155  RH  061%=      5-min Rain = 0
KCO1 031339Z 02003KT 23/16 A3013 RMK A01 T02340155  RH  061%=      5-min Rain = 0
KCO1 031340Z 01003KT 23/16 A3013 RMK A01 T02340155  RH  061%=      5-min Rain = 0
KCO1 031341Z 03003KT 23/16 A3013 RMK A01 T02340155  RH  061%=      5-min Rain = 0
KCO1 031342Z 02002KT 23/15 A3012 RMK A01 T02340154  RH  061%=      5-min Rain = 0
KCO1 031343Z 03003KT 23/15 A3012 RMK A01 T02340154  RH  061%=      5-min Rain = 0
KCO1 031344Z 02003KT 23/15 A3012 RMK A01 T02340154  RH  061%=      5-min Rain = 0
KCO1 031345Z 01003KT 23/15 A3012 RMK A01 T02340154  RH  061%=      5-min Rain = 0
KCO1 031346Z 00003KT 23/15 A3012 RMK A01 T02340154  RH  061%=      5-min Rain = 0
KCO1 031347Z 36002KT 23/15 A3012 RMK A01 T02340154  RH  061%=      5-min Rain = 0
KCO1 031348Z 34002KT 23/15 A3012 RMK A01 T02340154  RH  061%=      5-min Rain = 0
KCO1 031349Z 01003KT 23/15 A3013 RMK A01 T02340154  RH  061%=      5-min Rain = 0
KCO1 031350Z 01003KT 23/15 A3013 RMK A01 T02340154  RH  061%=      5-min Rain = 0
KCO1 031351Z 35003KT 23/15 A3013 RMK A01 T02340154  RH  061%=      5-min Rain = 0
KCO1 031352Z 34003KT 24/16 A3013 RMK A01 T02350155  RH  061%=      5-min Rain = 0
KCO1 031353Z 35003KT 24/16 A3013 RMK A01 T02350155  RH  061%=      5-min Rain = 0
KCO1 031354Z 02003KT 24/15 A3013 RMK A01 T02350154  RH  061%=      5-min Rain = 0
KCO1 031355Z 03004KT 24/15 A3013 RMK A01 T02350154  RH  061%=      5-min Rain = 0
KCO1 031356Z 03003KT 24/15 A3013 RMK A01 T02350154  RH  060%=      5-min Rain = 0
KCO1 031357Z 03002KT 24/15 A3013 RMK A01 T02350154  RH  060%=      5-min Rain = 0
KCO1 031358Z 01002KT 24/15 A3013 RMK A01 T02360154  RH  060%=      5-min Rain = 0
KCO1 031359Z 35003KT 24/16 A3013 RMK A01 T02360155  RH  060%=      5-min Rain = 0
KCO1 031400Z 34004KT 24/16 A3013 RMK A01 T02380155  RH  060%=      5-min Rain = 0
KCO1 031401Z 01004KT 24/15 A3013 RMK A01 T02380154  RH  059%=      5-min Rain = 0
KCO1 031402Z 02004KT 24/15 A3013 RMK A01 T02380154  RH  059%=      5-min Rain = 0
KCO1 031403Z 36004KT 24/16 A3013 RMK A01 T02380155  RH  060%=      5-min Rain = 0
KCO1 031404Z 35004KT 24/15 A3013 RMK A01 T02380154  RH  059%=      5-min Rain = 0
KCO1 031405Z 00004KT 24/15 A3013 RMK A01 T02390154  RH  059%=      5-min Rain = 0
KCO1 031406Z 01005KT 24/15 A3013 RMK A01 T02390154  RH  059%=      5-min Rain = 0
KCO1 031407Z 01004KT 24/15 A3013 RMK A01 T02390153  RH  059%=      5-min Rain = 0
KCO1 031408Z 02005KT 24/15 A3013 RMK A01 T02390154  RH  059%=      5-min Rain = 0
KCO1 031409Z 02004KT 24/15 A3013 RMK A01 T02390154  RH  059%=      5-min Rain = 0
KCO1 031410Z 01005KT 24/15 A3014 RMK A01 T02390154  RH  059%=      5-min Rain = 0
KCO1 031411Z 02005KT 24/15 A3014 RMK A01 T02390153  RH  059%=      5-min Rain = 0
KCO1 031412Z 01004KT 24/15 A3014 RMK A01 T02390153  RH  059%=      5-min Rain = 0
KCO1 031413Z 01004KT 24/15 A3014 RMK A01 T02380153  RH  059%=      5-min Rain = 0
KCO1 031414Z 01004KT 24/15 A3014 RMK A01 T02390153  RH  058%=      5-min Rain = 0
KCO1 031415Z 34005KT 24/15 A3014 RMK A01 T02410154  RH  058%=      5-min Rain = 0
KCO1 031416Z 01005KT 24/15 A3014 RMK A01 T02410154  RH  058%=      5-min Rain = 0
KCO1 031417Z 34006KT 24/15 A3014 RMK A01 T02410154  RH  058%=      5-min Rain = 0
KCO1 031418Z 34005KT 24/15 A3014 RMK A01 T02410154  RH  058%=      5-min Rain = 0
KCO1 031419Z 01005KT 24/15 A3014 RMK A01 T02390153  RH  059%=      5-min Rain = 0
KCO1 031420Z 02005KT 24/15 A3014 RMK A01 T02390153  RH  059%=      5-min Rain = 0
KCO1 031421Z 01005KT 24/15 A3013 RMK A01 T02390153  RH  059%=      5-min Rain = 0
KCO1 031422Z 01005KT 24/15 A3013 RMK A01 T02390153  RH  059%=      5-min Rain = 0
KCO1 031423Z 00004KT 24/15 A3013 RMK A01 T02380153  RH  059%=      5-min Rain = 0
KCO1 031424Z 00003KT 24/15 A3013 RMK A01 T02380153  RH  059%=      5-min Rain = 0
KCO1 031425Z 00003KT 24/15 A3013 RMK A01 T02380154  RH  059%=      5-min Rain = 0
KCO1 031426Z 36004KT 24/15 A3014 RMK A01 T02390153  RH  059%=      5-min Rain = 0
KCO1 031427Z 00004KT 24/15 A3014 RMK A01 T02390154  RH  059%=      5-min Rain = 0
KCO1 031428Z 00005KT 24/15 A3014 RMK A01 T02400154  RH  059%=      5-min Rain = 0
KCO1 031429Z 00005KT 24/15 A3014 RMK A01 T02400154  RH  059%=      5-min Rain = 0
KCO1 031430Z 01005KT 24/15 A3014 RMK A01 T02400154  RH  058%=      5-min Rain = 0
KCO1 031431Z 00005KT 24/15 A3014 RMK A01 T02410154  RH  058%=      5-min Rain = 0
KCO1 031432Z 01006KT 24/15 A3014 RMK A01 T02410153  RH  058%=      5-min Rain = 0
KCO1 031433Z 02006KT 24/15 A3014 RMK A01 T02410153  RH  058%=      5-min Rain = 0
KCO1 031434Z 02005KT 24/15 A3014 RMK A01 T02410153  RH  058%=      5-min Rain = 0
KCO1 031435Z 02005KT 24/15 A3014 RMK A01 T02410153  RH  058%=      5-min Rain = 0
KCO1 031436Z 01005KT 24/15 A3014 RMK A01 T02420154  RH  058%=      5-min Rain = 0
KCO1 031437Z 01005KT 24/15 A3014 RMK A01 T02420153  RH  058%=      5-min Rain = 0
KCO1 031438Z 00003KT 24/15 A3014 RMK A01 T02420154  RH  058%=      5-min Rain = 0
KCO1 031439Z 00003KT 24/15 A3014 RMK A01 T02410154  RH  058%=      5-min Rain = 0
KCO1 031440Z 02004KT 24/15 A3014 RMK A01 T02430154  RH  058%=      5-min Rain = 0
KCO1 031441Z 36004KT 24/16 A3014 RMK A01 T02430155  RH  058%=      5-min Rain = 0
KCO1 031442Z 35005KT 24/16 A3014 RMK A01 T02440156  RH  058%=      5-min Rain = 0
KCO1 031443Z 35005KT 24/16 A3014 RMK A01 T02430156  RH  058%=      5-min Rain = 0
KCO1 031444Z 36005KT 24/16 A3014 RMK A01 T02420156  RH  058%=      5-min Rain = 0
KCO1 031445Z 02005KT 24/16 A3014 RMK A01 T02420156  RH  059%=      5-min Rain = 0
KCO1 031446Z 01005KT 24/16 A3014 RMK A01 T02420156  RH  058%=      5-min Rain = 0
KCO1 031447Z 36005KT 24/16 A3014 RMK A01 T02420156  RH  058%=      5-min Rain = 0
KCO1 031448Z 01005KT 24/16 A3014 RMK A01 T02430156  RH  058%=      5-min Rain = 0
KCO1 031449Z 01006KT 24/16 A3014 RMK A01 T02430155  RH  058%=      5-min Rain = 0
KCO1 031450Z 02005KT 24/16 A3014 RMK A01 T02420155  RH  058%=      5-min Rain = 0
KCO1 031451Z 01003KT 24/16 A3014 RMK A01 T02410155  RH  058%=      5-min Rain = 0
KCO1 031452Z 01003KT 24/16 A3014 RMK A01 T02410155  RH  059%=      5-min Rain = 0
KCO1 031453Z 04004KT 24/16 A3014 RMK A01 T02410155  RH  059%=      5-min Rain = 0
KCO1 031454Z 04004KT 24/16 A3014 RMK A01 T02410155  RH  058%=      5-min Rain = 0
KCO1 031455Z 04005KT 24/16 A3014 RMK A01 T02420155  RH  059%=      5-min Rain = 0
KCO1 031456Z 03005KT 24/16 A3014 RMK A01 T02420156  RH  058%=      5-min Rain = 0
KCO1 031457Z 02005KT 24/16 A3014 RMK A01 T02430156  RH  058%=      5-min Rain = 0
KCO1 031458Z 02005KT 24/16 A3014 RMK A01 T02430155  RH  058%=      5-min Rain = 0
KCO1 031459Z 02005KT 24/16 A3014 RMK A01 T02440156  RH  058%=      5-min Rain = 0
KCO1 031500Z 00004KT 24/16 A3014 RMK A01 T02440156  RH  058%=      5-min Rain = 0
KCO1 031501Z 36003KT 24/16 A3014 RMK A01 T02440155  RH  058%=      5-min Rain = 0
KCO1 031502Z 02003KT 24/16 A3014 RMK A01 T02430155  RH  058%=      5-min Rain = 0
KCO1 031503Z 02005KT 24/16 A3014 RMK A01 T02430156  RH  058%=      5-min Rain = 0
KCO1 031504Z 04005KT 24/16 A3014 RMK A01 T02440156  RH  058%=      5-min Rain = 0
KCO1 031505Z 03005KT 25/16 A3014 RMK A01 T02450155  RH  057%=      5-min Rain = 0
KCO1 031506Z 01005KT 25/16 A3014 RMK A01 T02450156  RH  057%=      5-min Rain = 0
KCO1 031507Z 01004KT 25/16 A3014 RMK A01 T02460155  RH  057%=      5-min Rain = 0
KCO1 031508Z 34005KT 25/16 A3014 RMK A01 T02460155  RH  057%=      5-min Rain = 0
KCO1 031509Z 00005KT 25/16 A3014 RMK A01 T02460156  RH  057%=      5-min Rain = 0
KCO1 031510Z 01005KT 25/16 A3014 RMK A01 T02460155  RH  057%=      5-min Rain = 0
KCO1 031511Z 04005KT 25/16 A3014 RMK A01 T02460155  RH  057%=      5-min Rain = 0
KCO1 031512Z 01006KT 25/16 A3014 RMK A01 T02460155  RH  057%=      5-min Rain = 0
KCO1 031513Z 02005KT 25/16 A3014 RMK A01 T02460155  RH  057%=      5-min Rain = 0
KCO1 031514Z 00004KT 25/16 A3014 RMK A01 T02460155  RH  057%=      5-min Rain = 0
KCO1 031515Z 03006KT 25/16 A3014 RMK A01 T02470155  RH  056%=      5-min Rain = 0
KCO1 031516Z 03006KT 25/15 A3014 RMK A01 T02470154  RH  056%=      5-min Rain = 0
KCO1 031517Z 04005KT 25/15 A3014 RMK A01 T02460154  RH  056%=      5-min Rain = 0
KCO1 031518Z 03005KT 25/15 A3014 RMK A01 T02460154  RH  057%=      5-min Rain = 0
KCO1 031519Z 01005KT 25/16 A3014 RMK A01 T02460155  RH  057%=      5-min Rain = 0
KCO1 031520Z 35005KT 25/16 A3014 RMK A01 T02470155  RH  056%=      5-min Rain = 0
KCO1 031521Z 35005KT 25/16 A3014 RMK A01 T02480155  RH  056%=      5-min Rain = 0
KCO1 031522Z 02004KT 25/16 A3014 RMK A01 T02480155  RH  056%=      5-min Rain = 0
KCO1 031523Z 04004KT 25/16 A3014 RMK A01 T02480155  RH  056%=      5-min Rain = 0
KCO1 031524Z 02004KT 25/16 A3015 RMK A01 T02490155  RH  056%=      5-min Rain = 0
KCO1 031525Z 36003KT 25/16 A3015 RMK A01 T02490155  RH  056%=      5-min Rain = 0
KCO1 031526Z 35004KT 25/15 A3015 RMK A01 T02490154  RH  056%=      5-min Rain = 0
KCO1 031527Z 00004KT 25/16 A3015 RMK A01 T02490155  RH  056%=      5-min Rain = 0
KCO1 031528Z 36004KT 25/15 A3015 RMK A01 T02490154  RH  056%=      5-min Rain = 0
KCO1 031529Z 35003KT 25/15 A3015 RMK A01 T02480154  RH  056%=      5-min Rain = 0
KCO1 031530Z 01003KT 25/15 A3015 RMK A01 T02480154  RH  056%=      5-min Rain = 0
KCO1 031531Z 02004KT 25/15 A3015 RMK A01 T02470154  RH  056%=      5-min Rain = 0
KCO1 031532Z 03004KT 25/15 A3015 RMK A01 T02480154  RH  056%=      5-min Rain = 0
KCO1 031533Z 02003KT 25/16 A3015 RMK A01 T02480155  RH  056%=      5-min Rain = 0
KCO1 031534Z 02003KT 25/15 A3015 RMK A01 T02480154  RH  056%=      5-min Rain = 0
KCO1 031535Z 00003KT 25/15 A3015 RMK A01 T02480154  RH  056%=      5-min Rain = 0
KCO1 031536Z 36002KT 25/15 A3015 RMK A01 T02490154  RH  056%=      5-min Rain = 0
KCO1 031537Z 34002KT 25/15 A3015 RMK A01 T02490154  RH  055%=      5-min Rain = 0
KCO1 031538Z 33003KT 25/15 A3015 RMK A01 T02490154  RH  055%=      5-min Rain = 0
KCO1 031539Z 36004KT 25/15 A3015 RMK A01 T02490154  RH  055%=      5-min Rain = 0
KCO1 031540Z 00005KT 25/16 A3015 RMK A01 T02500155  RH  056%=      5-min Rain = 0
KCO1 031541Z 01005KT 25/16 A3015 RMK A01 T02500155  RH  055%=      5-min Rain = 0
KCO1 031542Z 03004KT 25/16 A3015 RMK A01 T02500155  RH  056%=      5-min Rain = 0
KCO1 031543Z 02004KT 25/16 A3015 RMK A01 T02500155  RH  055%=      5-min Rain = 0
KCO1 031544Z 02005KT 25/16 A3015 RMK A01 T02510155  RH  055%=      5-min Rain = 0
KCO1 031545Z 02005KT 25/16 A3015 RMK A01 T02510155  RH  055%=      5-min Rain = 0
KCO1 031546Z 02003KT 25/15 A3016 RMK A01 T02500154  RH  055%=      5-min Rain = 0
KCO1 031547Z 02002KT 25/16 A3016 RMK A01 T02510155  RH  055%=      5-min Rain = 0
KCO1 031548Z 34003KT 25/16 A3015 RMK A01 T02510155  RH  055%=      5-min Rain = 0
KCO1 031549Z 01003KT 25/16 A3015 RMK A01 T02510155  RH  055%=      5-min Rain = 0
KCO1 031550Z 05001KT 25/16 A3016 RMK A01 T02510155  RH  055%=      5-min Rain = 0
KCO1 031551Z 01002KT 25/16 A3016 RMK A01 T02520156  RH  055%=      5-min Rain = 0
KCO1 031552Z 35004KT 25/16 A3016 RMK A01 T02540156  RH  055%=      5-min Rain = 0
KCO1 031553Z 35005KT 26/16 A3016 RMK A01 T02560156  RH  054%=      5-min Rain = 0
KCO1 031554Z 34005KT 26/16 A3016 RMK A01 T02560155  RH  053%=      5-min Rain = 0
KCO1 031555Z 36004KT 26/15 A3016 RMK A01 T02550154  RH  054%=      5-min Rain = 0
KCO1 031556Z 02002KT 25/15 A3016 RMK A01 T02540154  RH  054%=      5-min Rain = 0
KCO1 031557Z 01003KT 25/16 A3016 RMK A01 T02540155  RH  054%=      5-min Rain = 0
KCO1 031558Z 02004KT 26/15 A3016 RMK A01 T02550154  RH  054%=      5-min Rain = 0
KCO1 031559Z 01004KT 26/15 A3016 RMK A01 T02550154  RH  054%=      5-min Rain = 0
KCO1 031600Z 02005KT 26/15 A3016 RMK A01 T02550154  RH  054%=      5-min Rain = 0
KCO1 031601Z 02004KT 26/15 A3016 RMK A01 T02550154  RH  054%=      5-min Rain = 0
KCO1 031602Z 02002KT 25/15 A3016 RMK A01 T02540154  RH  054%=      5-min Rain = 0
KCO1 031603Z 31000KT 25/15 A3016 RMK A01 T02540154  RH  054%=      5-min Rain = 0
KCO1 031604Z 30001KT 26/15 A3015 RMK A01 T02550154  RH  054%=      5-min Rain = 0
KCO1 031605Z 03002KT 26/15 A3015 RMK A01 T02550154  RH  054%=      5-min Rain = 0
KCO1 031606Z 01005KT 26/16 A3016 RMK A01 T02560155  RH  053%=      5-min Rain = 0
KCO1 031607Z 02004KT 26/16 A3016 RMK A01 T02560155  RH  053%=      5-min Rain = 0
KCO1 031608Z 01006KT 26/16 A3016 RMK A01 T02560155  RH  054%=      5-min Rain = 0
KCO1 031609Z 01005KT 26/16 A3016 RMK A01 T02560155  RH  053%=      5-min Rain = 0
KCO1 031610Z 02003KT 26/16 A3016 RMK A01 T02560155  RH  053%=      5-min Rain = 0
KCO1 031611Z 01006KT 26/16 A3016 RMK A01 T02560155  RH  054%=      5-min Rain = 0
KCO1 031612Z 02005KT 26/16 A3016 RMK A01 T02570155  RH  054%=      5-min Rain = 0
KCO1 031613Z 01004KT 26/16 A3016 RMK A01 T02560155  RH  054%=      5-min Rain = 0
KCO1 031614Z 34004KT 26/16 A3016 RMK A01 T02550155  RH  054%=      5-min Rain = 0
KCO1 031615Z 34004KT 26/15 A3016 RMK A01 T02560154  RH  053%=      5-min Rain = 0
KCO1 031616Z 35004KT 26/16 A3016 RMK A01 T02550155  RH  054%=      5-min Rain = 0
KCO1 031617Z 01004KT 26/16 A3016 RMK A01 T02550155  RH  054%=      5-min Rain = 0
KCO1 031618Z 01005KT 26/16 A3016 RMK A01 T02560155  RH  053%=      5-min Rain = 0
KCO1 031619Z 01005KT 26/16 A3016 RMK A01 T02570155  RH  053%=      5-min Rain = 0
KCO1 031620Z 36004KT 26/15 A3016 RMK A01 T02560154  RH  053%=      5-min Rain = 0
KCO1 031621Z 35004KT 26/15 A3016 RMK A01 T02550154  RH  054%=      5-min Rain = 0
KCO1 031622Z 35003KT 26/15 A3016 RMK A01 T02550154  RH  054%=      5-min Rain = 0
KCO1 031623Z 01003KT 26/16 A3016 RMK A01 T02550155  RH  054%=      5-min Rain = 0
KCO1 031624Z 03004KT 26/16 A3016 RMK A01 T02560155  RH  054%=      5-min Rain = 0
KCO1 031625Z 05004KT 26/16 A3016 RMK A01 T02560155  RH  053%=      5-min Rain = 0
KCO1 031626Z 07004KT 26/16 A3016 RMK A01 T02580156  RH  053%=      5-min Rain = 0
KCO1 031627Z 07003KT 26/16 A3015 RMK A01 T02580155  RH  053%=      5-min Rain = 0
KCO1 031628Z 05003KT 26/16 A3015 RMK A01 T02580155  RH  053%=      5-min Rain = 0
KCO1 031629Z 03004KT 26/16 A3015 RMK A01 T02580155  RH  053%=      5-min Rain = 0
KCO1 031630Z 04005KT 26/16 A3016 RMK A01 T02580155  RH  053%=      5-min Rain = 0
KCO1 031631Z 06004KT 26/15 A3016 RMK A01 T02570154  RH  053%=      5-min Rain = 0
KCO1 031632Z 05003KT 26/15 A3016 RMK A01 T02560154  RH  053%=      5-min Rain = 0
KCO1 031633Z 04003KT 26/15 A3016 RMK A01 T02550154  RH  053%=      5-min Rain = 0
KCO1 031634Z 05003KT 26/16 A3015 RMK A01 T02560155  RH  054%=      5-min Rain = 0
KCO1 031635Z 03005KT 26/16 A3015 RMK A01 T02570155  RH  053%=      5-min Rain = 0
KCO1 031636Z 02004KT 26/16 A3015 RMK A01 T02580155  RH  053%=      5-min Rain = 0
KCO1 031637Z 36004KT 26/16 A3015 RMK A01 T02580155  RH  053%=      5-min Rain = 0
KCO1 031638Z 35003KT 26/16 A3015 RMK A01 T02580155  RH  053%=      5-min Rain = 0
KCO1 031639Z 01004KT 26/16 A3015 RMK A01 T02570155  RH  053%=      5-min Rain = 0
KCO1 031640Z 36004KT 26/16 A3015 RMK A01 T02570155  RH  053%=      5-min Rain = 0
KCO1 031641Z 01003KT 26/15 A3015 RMK A01 T02570154  RH  053%=      5-min Rain = 0
KCO1 031642Z 01003KT 26/15 A3015 RMK A01 T02570154  RH  053%=      5-min Rain = 0
KCO1 031643Z 01003KT 26/15 A3015 RMK A01 T02560154  RH  053%=      5-min Rain = 0
KCO1 031644Z 02004KT 26/16 A3015 RMK A01 T02570155  RH  053%=      5-min Rain = 0
KCO1 031645Z 01005KT 26/15 A3015 RMK A01 T02580154  RH  053%=      5-min Rain = 0
KCO1 031646Z 02004KT 26/15 A3016 RMK A01 T02580154  RH  053%=      5-min Rain = 0
KCO1 031647Z 01002KT 26/15 A3016 RMK A01 T02580154  RH  053%=      5-min Rain = 0
KCO1 031648Z 00004KT 26/16 A3016 RMK A01 T02590155  RH  053%=      5-min Rain = 0
KCO1 031649Z 00005KT 26/16 A3016 RMK A01 T02600155  RH  052%=      5-min Rain = 0
KCO1 031650Z 00005KT 26/16 A3016 RMK A01 T02590155  RH  053%=      5-min Rain = 0
KCO1 031651Z 02005KT 26/16 A3016 RMK A01 T02590155  RH  052%=      5-min Rain = 0
KCO1 031652Z 03004KT 26/16 A3016 RMK A01 T02600155  RH  052%=      5-min Rain = 0
KCO1 031653Z 07003KT 26/16 A3016 RMK A01 T02600155  RH  052%=      5-min Rain = 0
KCO1 031654Z 05002KT 26/16 A3016 RMK A01 T02610156  RH  052%=      5-min Rain = 0
KCO1 031655Z 03004KT 26/16 A3016 RMK A01 T02620155  RH  052%=      5-min Rain = 0
KCO1 031656Z 03005KT 26/16 A3016 RMK A01 T02630155  RH  051%=      5-min Rain = 0
KCO1 031657Z 04005KT 26/16 A3016 RMK A01 T02620155  RH  052%=      5-min Rain = 0
KCO1 031658Z 06005KT 26/16 A3016 RMK A01 T02620155  RH  052%=      5-min Rain = 0
KCO1 031659Z 06004KT 26/16 A3016 RMK A01 T02640156  RH  051%=      5-min Rain = 0
KCO1 031700Z 05005KT 27/16 A3016 RMK A01 T02670156  RH  051%=      5-min Rain = 0
KCO1 031701Z 06005KT 27/16 A3016 RMK A01 T02690157  RH  050%=      5-min Rain = 0
KCO1 031702Z 07004KT 27/16 A3016 RMK A01 T02730159  RH  050%=      5-min Rain = 0
KCO1 031703Z 08005KT 28/16 A3016 RMK A01 T02770157  RH  048%=      5-min Rain = 0
KCO1 031704Z 06004KT 28/16 A3016 RMK A01 T02770156  RH  048%=      5-min Rain = 0
KCO1 031705Z 06005KT 28/16 A3016 RMK A01 T02760156  RH  048%=      5-min Rain = 0
KCO1 031706Z 07004KT 28/16 A3016 RMK A01 T02760155  RH  048%=      5-min Rain = 0
KCO1 031707Z 08005KT 28/16 A3016 RMK A01 T02750155  RH  048%=      5-min Rain = 0
KCO1 031708Z 08004KT 28/16 A3015 RMK A01 T02750155  RH  048%=      5-min Rain = 0
KCO1 031709Z 05004KT 28/16 A3016 RMK A01 T02780156  RH  047%=      5-min Rain = 0
KCO1 031710Z 08003KT 28/16 A3015 RMK A01 T02780155  RH  047%=      5-min Rain = 0
KCO1 031711Z 08004KT 28/16 A3015 RMK A01 T02810157  RH  047%=      5-min Rain = 0
KCO1 031712Z 07003KT 29/16 A3015 RMK A01 T02850156  RH  046%=      5-min Rain = 0
KCO1 031713Z 08003KT 28/15 A3015 RMK A01 T02840154  RH  045%=      5-min Rain = 0
KCO1 031714Z 09004KT 28/16 A3015 RMK A01 T02840155  RH  045%=      5-min Rain = 0
KCO1 031715Z 09006KT 28/16 A3015 RMK A01 T02830155  RH  046%=      5-min Rain = 0
KCO1 031716Z 09003KT 28/15 A3015 RMK A01 T02830154  RH  045%=      5-min Rain = 0
KCO1 031717Z 12001KT 28/15 A3015 RMK A01 T02830154  RH  045%=      5-min Rain = 0
KCO1 031718Z 09002KT 28/16 A3015 RMK A01 T02830155  RH  046%=      5-min Rain = 0
KCO1 031719Z 06002KT 28/16 A3015 RMK A01 T02830155  RH  046%=      5-min Rain = 0
KCO1 031720Z 07007KT 29/16 A3015 RMK A01 T02850157  RH  046%=      5-min Rain = 0
KCO1 031721Z 07006KT 29/16 A3015 RMK A01 T02870156  RH  045%=      5-min Rain = 0
KCO1 031722Z 09003KT 29/16 A3015 RMK A01 T02850155  RH  045%=      5-min Rain = 0
KCO1 031723Z 00001KT 28/16 A3015 RMK A01 T02840155  RH  045%=      5-min Rain = 0
KCO1 031724Z 11001KT 29/16 A3015 RMK A01 T02850156  RH  046%=      5-min Rain = 0
KCO1 031725Z 11004KT 29/16 A3015 RMK A01 T02880156  RH  045%=      5-min Rain = 0
KCO1 031726Z 07004KT 29/16 A3015 RMK A01 T02900156  RH  044%=      5-min Rain = 0
KCO1 031727Z 08004KT 29/16 A3015 RMK A01 T02900156  RH  044%=      5-min Rain = 0
KCO1 031728Z 09005KT 29/16 A3015 RMK A01 T02900156  RH  044%=      5-min Rain = 0
KCO1 031729Z 10004KT 29/16 A3015 RMK A01 T02900156  RH  044%=      5-min Rain = 0
KCO1 031730Z 09003KT 29/16 A3015 RMK A01 T02910156  RH  044%=      5-min Rain = 0
KCO1 031731Z 07003KT 29/16 A3015 RMK A01 T02900155  RH  044%=      5-min Rain = 0
KCO1 031732Z 05004KT 29/16 A3015 RMK A01 T02890155  RH  044%=      5-min Rain = 0
KCO1 031733Z 02003KT 29/16 A3015 RMK A01 T02880155  RH  044%=      5-min Rain = 0
KCO1 031734Z 03002KT 29/16 A3015 RMK A01 T02870155  RH  045%=      5-min Rain = 0
KCO1 031735Z 09004KT 29/16 A3015 RMK A01 T02880155  RH  045%=      5-min Rain = 0
KCO1 031736Z 09004KT 29/16 A3015 RMK A01 T02900155  RH  044%=      5-min Rain = 0
KCO1 031737Z 03005KT 29/16 A3015 RMK A01 T02920156  RH  044%=      5-min Rain = 0
KCO1 031738Z 04004KT 29/16 A3015 RMK A01 T02920157  RH  044%=      5-min Rain = 0
KCO1 031739Z 02003KT 29/16 A3015 RMK A01 T02930157  RH  044%=      5-min Rain = 0
KCO1 031740Z 10004KT 29/16 A3015 RMK A01 T02940156  RH  043%=      5-min Rain = 0
KCO1 031741Z 09002KT 29/16 A3015 RMK A01 T02930155  RH  043%=      5-min Rain = 0
KCO1 031742Z 06001KT 29/16 A3015 RMK A01 T02920155  RH  043%=      5-min Rain = 0
KCO1 031743Z 10002KT 29/16 A3015 RMK A01 T02920155  RH  043%=      5-min Rain = 0
KCO1 031744Z 13004KT 29/16 A3015 RMK A01 T02930155  RH  043%=      5-min Rain = 0
KCO1 031745Z 11004KT 29/15 A3015 RMK A01 T02920154  RH  043%=      5-min Rain = 0
KCO1 031746Z 09003KT 29/16 A3015 RMK A01 T02910155  RH  044%=      5-min Rain = 0
KCO1 031747Z 05001KT 29/15 A3015 RMK A01 T02910154  RH  044%=      5-min Rain = 0
KCO1 031748Z 27002KT 29/15 A3015 RMK A01 T02890154  RH  044%=      5-min Rain = 0
KCO1 031749Z 29002KT 29/15 A3015 RMK A01 T02880154  RH  044%=      5-min Rain = 0
KCO1 031750Z 27002KT 29/16 A3015 RMK A01 T02870155  RH  045%=      5-min Rain = 0
KCO1 031751Z 04003KT 29/16 A3015 RMK A01 T02900156  RH  044%=      5-min Rain = 0
KCO1 031752Z 06006KT 29/15 A3015 RMK A01 T02930154  RH  043%=      5-min Rain = 0
KCO1 031753Z 07005KT 29/15 A3015 RMK A01 T02930154  RH  043%=      5-min Rain = 0
KCO1 031754Z 05004KT 29/15 A3015 RMK A01 T02940153  RH  042%=      5-min Rain = 0
KCO1 031755Z 06004KT 29/15 A3015 RMK A01 T02940152  RH  042%=      5-min Rain = 0
KCO1 031756Z 08003KT 29/15 A3015 RMK A01 T02930152  RH  042%=      5-min Rain = 0
KCO1 031757Z 08002KT 29/15 A3015 RMK A01 T02940152  RH  042%=      5-min Rain = 0
KCO1 031758Z 33002KT 29/15 A3015 RMK A01 T02940152  RH  042%=      5-min Rain = 0
KCO1 031759Z 09002KT 29/15 A3015 RMK A01 T02940153  RH  042%=      5-min Rain = 0
KCO1 031800Z 15001KT 29/15 A3015 RMK A01 T02940152  RH  042%=      5-min Rain = 0
KCO1 031801Z 20001KT 30/15 A3015 RMK A01 T02950152  RH  042%=      5-min Rain = 0
KCO1 031802Z 08001KT 30/15 A3015 RMK A01 T02960153  RH  042%=      5-min Rain = 0
KCO1 031803Z 10002KT 30/15 A3015 RMK A01 T02990153  RH  041%=      5-min Rain = 0
KCO1 031804Z 11002KT 30/15 A3014 RMK A01 T02990152  RH  041%=      5-min Rain = 0
KCO1 031805Z 14003KT 30/15 A3014 RMK A01 T02980152  RH  041%=      5-min Rain = 0
KCO1 031806Z 16002KT 30/15 A3014 RMK A01 T02980151  RH  041%=      5-min Rain = 0
KCO1 031807Z 35001KT 30/15 A3015 RMK A01 T02980151  RH  041%=      5-min Rain = 0
KCO1 031808Z 33003KT 30/15 A3014 RMK A01 T02990153  RH  041%=      5-min Rain = 0
KCO1 031809Z 34006KT 30/15 A3014 RMK A01 T03000154  RH  041%=      5-min Rain = 0
KCO1 031810Z 33004KT 30/15 A3014 RMK A01 T03010154  RH  041%=      5-min Rain = 0
KCO1 031811Z 32003KT 30/15 A3014 RMK A01 T03010152  RH  041%=      5-min Rain = 0
KCO1 031812Z 35003KT 30/15 A3014 RMK A01 T02990153  RH  041%=      5-min Rain = 0
KCO1 031813Z 06006KT 30/15 A3014 RMK A01 T02990152  RH  041%=      5-min Rain = 0
KCO1 031814Z 07006KT 30/15 A3014 RMK A01 T03010151  RH  040%=      5-min Rain = 0
KCO1 031815Z 07007KT 30/15 A3014 RMK A01 T03030151  RH  040%=      5-min Rain = 0
KCO1 031816Z 07005KT 30/15 A3014 RMK A01 T03040150  RH  039%=      5-min Rain = 0
KCO1 031817Z 07005KT 30/15 A3014 RMK A01 T03040150  RH  039%=      5-min Rain = 0
KCO1 031818Z 08003KT 30/15 A3014 RMK A01 T03040150  RH  039%=      5-min Rain = 0
KCO1 031819Z 05003KT 30/15 A3014 RMK A01 T03040150  RH  039%=      5-min Rain = 0
KCO1 031820Z 06003KT 30/15 A3014 RMK A01 T03030149  RH  039%=      5-min Rain = 0
KCO1 031821Z 07002KT 30/15 A3014 RMK A01 T03020149  RH  039%=      5-min Rain = 0
KCO1 031822Z 04001KT 30/15 A3014 RMK A01 T03030148  RH  039%=      5-min Rain = 0
KCO1 031823Z 24002KT 30/15 A3014 RMK A01 T03030149  RH  039%=      5-min Rain = 0
KCO1 031824Z 24002KT 30/15 A3014 RMK A01 T03030149  RH  039%=      5-min Rain = 0
KCO1 031825Z 06007KT 30/15 A3014 RMK A01 T03030149  RH  039%=      5-min Rain = 0
KCO1 031826Z 07005KT 30/15 A3014 RMK A01 T03040148  RH  039%=      5-min Rain = 0
KCO1 031827Z 09003KT 31/15 A3014 RMK A01 T03050147  RH  038%=      5-min Rain = 0
KCO1 031828Z 08002KT 31/15 A3014 RMK A01 T03070147  RH  038%=      5-min Rain = 0
KCO1 031829Z 05005KT 31/15 A3014 RMK A01 T03080148  RH  038%=      5-min Rain = 0
KCO1 031830Z 05003KT 31/15 A3014 RMK A01 T03070146  RH  038%=      5-min Rain = 0
KCO1 031831Z 06002KT 31/15 A3014 RMK A01 T03060146  RH  038%=      5-min Rain = 0
KCO1 031832Z 16000KT 31/15 A3014 RMK A01 T03070145  RH  037%=      5-min Rain = 0
KCO1 031833Z 27001KT 31/15 A3013 RMK A01 T03070147  RH  038%=      5-min Rain = 0
KCO1 031834Z 28001KT 31/15 A3013 RMK A01 T03090149  RH  038%=      5-min Rain = 0
KCO1 031835Z 04002KT 31/15 A3013 RMK A01 T03130149  RH  037%=      5-min Rain = 0
KCO1 031836Z 04003KT 32/15 A3013 RMK A01 T03150147  RH  036%=      5-min Rain = 0
KCO1 031837Z 01003KT 31/14 A3013 RMK A01 T03130144  RH  036%=      5-min Rain = 0
KCO1 031838Z 06003KT 31/15 A3013 RMK A01 T03110145  RH  036%=      5-min Rain = 0
KCO1 031839Z 06003KT 31/15 A3013 RMK A01 T03120145  RH  036%=      5-min Rain = 0
KCO1 031840Z 08003KT 31/15 A3013 RMK A01 T03130145  RH  036%=      5-min Rain = 0
KCO1 031841Z 07003KT 31/15 A3013 RMK A01 T03130145  RH  036%=      5-min Rain = 0
KCO1 031842Z 09002KT 31/14 A3013 RMK A01 T03120144  RH  036%=      5-min Rain = 0
KCO1 031843Z 12000KT 31/14 A3013 RMK A01 T03100144  RH  037%=      5-min Rain = 0
KCO1 031844Z 03005KT 31/15 A3013 RMK A01 T03110146  RH  037%=      5-min Rain = 0
KCO1 031845Z 03004KT 31/15 A3013 RMK A01 T03100146  RH  037%=      5-min Rain = 0
KCO1 031846Z 04004KT 31/15 A3013 RMK A01 T03080145  RH  037%=      5-min Rain = 0
KCO1 031847Z 04003KT 31/14 A3013 RMK A01 T03080144  RH  037%=      5-min Rain = 0
KCO1 031848Z 03002KT 31/14 A3013 RMK A01 T03080143  RH  037%=      5-min Rain = 0
KCO1 031849Z 06001KT 31/14 A3013 RMK A01 T03070143  RH  037%=      5-min Rain = 0
KCO1 031850Z 04001KT 31/14 A3012 RMK A01 T03070143  RH  037%=      5-min Rain = 0
KCO1 031851Z 03004KT 31/14 A3012 RMK A01 T03080143  RH  037%=      5-min Rain = 0
KCO1 031852Z 01003KT 31/14 A3012 RMK A01 T03100142  RH  036%=      5-min Rain = 0
KCO1 031853Z 36002KT 31/14 A3012 RMK A01 T03090142  RH  036%=      5-min Rain = 0
KCO1 031854Z 34002KT 31/14 A3012 RMK A01 T03090141  RH  036%=      5-min Rain = 0
KCO1 031855Z 32003KT 31/14 A3012 RMK A01 T03090140  RH  036%=      5-min Rain = 0
KCO1 031856Z 30003KT 31/14 A3012 RMK A01 T03090143  RH  036%=      5-min Rain = 0
KCO1 031857Z 31002KT 31/15 A3012 RMK A01 T03080146  RH  037%=      5-min Rain = 0
KCO1 031858Z 31002KT 31/15 A3012 RMK A01 T03090145  RH  037%=      5-min Rain = 0
KCO1 031859Z 35001KT 31/15 A3012 RMK A01 T03110145  RH  036%=      5-min Rain = 0
KCO1 031900Z 07002KT 31/15 A3012 RMK A01 T03130146  RH  036%=      5-min Rain = 0
KCO1 031901Z 07005KT 32/15 A3012 RMK A01 T03180148  RH  036%=      5-min Rain = 0
KCO1 031902Z 10004KT 32/15 A3012 RMK A01 T03200146  RH  035%=      5-min Rain = 0
KCO1 031903Z 08005KT 32/15 A3012 RMK A01 T03230149  RH  035%=      5-min Rain = 0
KCO1 031904Z 06005KT 33/15 A3012 RMK A01 T03290149  RH  034%=      5-min Rain = 0
KCO1 031905Z 04005KT 33/15 A3012 RMK A01 T03300146  RH  033%=      5-min Rain = 0
KCO1 031906Z 08002KT 33/14 A3012 RMK A01 T03260144  RH  033%=      5-min Rain = 0
KCO1 031907Z 09002KT 32/15 A3012 RMK A01 T03240145  RH  034%=      5-min Rain = 0
KCO1 031908Z 06001KT 32/14 A3012 RMK A01 T03240144  RH  034%=      5-min Rain = 0
KCO1 031909Z 22001KT 33/15 A3012 RMK A01 T03250146  RH  034%=      5-min Rain = 0
KCO1 031910Z 23002KT 33/15 A3011 RMK A01 T03250146  RH  034%=      5-min Rain = 0
KCO1 031911Z 29003KT 32/15 A3011 RMK A01 T03240146  RH  034%=      5-min Rain = 0
KCO1 031912Z 00004KT 32/15 A3011 RMK A01 T03240146  RH  034%=      5-min Rain = 0
KCO1 031913Z 01005KT 32/14 A3011 RMK A01 T03240144  RH  034%=      5-min Rain = 0
KCO1 031914Z 35004KT 32/14 A3011 RMK A01 T03230143  RH  034%=      5-min Rain = 0
KCO1 031915Z 03004KT 32/14 A3011 RMK A01 T03220144  RH  034%=      5-min Rain = 0
KCO1 031916Z 03003KT 32/14 A3011 RMK A01 T03220144  RH  034%=      5-min Rain = 0
KCO1 031917Z 02002KT 32/14 A3011 RMK A01 T03240143  RH  034%=      5-min Rain = 0
KCO1 031918Z 34002KT 32/14 A3011 RMK A01 T03240142  RH  033%=      5-min Rain = 0
KCO1 031919Z 04003KT 33/14 A3011 RMK A01 T03260144  RH  033%=      5-min Rain = 0
KCO1 031920Z 06004KT 33/14 A3011 RMK A01 T03280144  RH  033%=      5-min Rain = 0
KCO1 031921Z 07005KT 33/14 A3011 RMK A01 T03250142  RH  033%=      5-min Rain = 0
KCO1 031922Z 06006KT 32/14 A3011 RMK A01 T03240142  RH  033%=      5-min Rain = 0
KCO1 031923Z 05003KT 33/14 A3011 RMK A01 T03250142  RH  033%=      5-min Rain = 0
KCO1 031924Z 06003KT 32/14 A3011 RMK A01 T03240143  RH  033%=      5-min Rain = 0
KCO1 031925Z 11005KT 33/15 A3011 RMK A01 T03260146  RH  034%=      5-min Rain = 0
KCO1 031926Z 08004KT 33/15 A3011 RMK A01 T03310146  RH  033%=      5-min Rain = 0
KCO1 031927Z 11003KT 33/15 A3011 RMK A01 T03310145  RH  033%=      5-min Rain = 0
KCO1 031928Z 11003KT 33/14 A3011 RMK A01 T03300144  RH  033%=      5-min Rain = 0
KCO1 031929Z 17004KT 33/14 A3011 RMK A01 T03310144  RH  032%=      5-min Rain = 0
KCO1 031930Z 19004KT 33/14 A3011 RMK A01 T03310141  RH  032%=      5-min Rain = 0
KCO1 031931Z 21002KT 33/14 A301 RMK A01 T03270141  RH  033%=      5-min Rain = 0
KCO1 031932Z 24002KT 33/14 A301 RMK A01 T03260142  RH  033%=      5-min Rain = 0
KCO1 031933Z 17001KT 33/14 A301 RMK A01 T03260143  RH  033%=      5-min Rain = 0
KCO1 031934Z 08003KT 33/14 A301 RMK A01 T03260144  RH  033%=      5-min Rain = 0
KCO1 031935Z 06004KT 33/15 A301 RMK A01 T03290147  RH  033%=      5-min Rain = 0
KCO1 031936Z 03006KT 33/15 A301 RMK A01 T03300147  RH  033%=      5-min Rain = 0
KCO1 031937Z 03005KT 33/15 A301 RMK A01 T03290147  RH  033%=      5-min Rain = 0
KCO1 031938Z 02006KT 33/15 A301 RMK A01 T03280147  RH  034%=      5-min Rain = 0
KCO1 031939Z 03004KT 33/15 A301 RMK A01 T03280146  RH  033%=      5-min Rain = 0
KCO1 031940Z 07005KT 33/15 A301 RMK A01 T03260146  RH  034%=      5-min Rain = 0
KCO1 031941Z 10003KT 33/15 A301 RMK A01 T03260146  RH  034%=      5-min Rain = 0
KCO1 031942Z 10004KT 33/15 A301 RMK A01 T03300147  RH  033%=      5-min Rain = 0
KCO1 031943Z 14001KT 33/14 A301 RMK A01 T03310144  RH  032%=      5-min Rain = 0
KCO1 031944Z 11003KT 33/14 A301 RMK A01 T03290144  RH  033%=      5-min Rain = 0
KCO1 031945Z 10004KT 33/15 A301 RMK A01 T03300146  RH  033%=      5-min Rain = 0
KCO1 031946Z 10003KT 34/15 A301 RMK A01 T03350146  RH  032%=      5-min Rain = 0
KCO1 031947Z 14004KT 34/14 A301 RMK A01 T03360144  RH  031%=      5-min Rain = 0
KCO1 031948Z 15004KT 34/14 A301 RMK A01 T03350140  RH  031%=      5-min Rain = 0
KCO1 031949Z 15006KT 34/14 A3009 RMK A01 T03360140  RH  031%=      5-min Rain = 0
KCO1 031950Z 15006KT 34/14 A3009 RMK A01 T03370138  RH  030%=      5-min Rain = 0
KCO1 031951Z 13005KT 34/14 A3009 RMK A01 T03380141  RH  030%=      5-min Rain = 0
KCO1 031952Z 11005KT 34/14 A3009 RMK A01 T03410140  RH  030%=      5-min Rain = 0
KCO1 031953Z 12004KT 34/14 A3009 RMK A01 T03410140  RH  030%=      5-min Rain = 0
KCO1 031954Z 15004KT 34/14 A3009 RMK A01 T03400139  RH  030%=      5-min Rain = 0
KCO1 031955Z 15003KT 34/14 A3009 RMK A01 T03390136  RH  030%=      5-min Rain = 0
KCO1 031956Z 12003KT 34/14 A3009 RMK A01 T03380138  RH  030%=      5-min Rain = 0
KCO1 031957Z 20003KT 34/14 A3009 RMK A01 T03400140  RH  030%=      5-min Rain = 0
KCO1 031958Z 15003KT 34/14 A3009 RMK A01 T03410140  RH  030%=      5-min Rain = 0
KCO1 031959Z 14003KT 34/14 A3009 RMK A01 T03430140  RH  030%=      5-min Rain = 0
KCO1 032000Z 15004KT 34/14 A3009 RMK A01 T03430141  RH  030%=      5-min Rain = 0
KCO1 032001Z 18005KT 34/14 A3009 RMK A01 T03430140  RH  030%=      5-min Rain = 0
KCO1 032002Z 17003KT 34/14 A3009 RMK A01 T03400141  RH  030%=      5-min Rain = 0
KCO1 032003Z 07004G10KT 34/14 A3009 RMK A01 T03410143  RH  030%=      5-min Rain = 0
KCO1 032004Z 11007KT 34/14 A3009 RMK A01 T03440144  RH  030%=      5-min Rain = 0
KCO1 032005Z 10004KT 34/14 A3009 RMK A01 T03440144  RH  030%=      5-min Rain = 0
KCO1 032006Z 08005KT 34/14 A3009 RMK A01 T03440142  RH  030%=      5-min Rain = 0
KCO1 032007Z 09005KT 34/14 A3009 RMK A01 T03420141  RH  030%=      5-min Rain = 0
KCO1 032008Z 07005KT 34/14 A3009 RMK A01 T03390142  RH  031%=      5-min Rain = 0
KCO1 032009Z 11003KT 34/14 A3009 RMK A01 T03380142  RH  031%=      5-min Rain = 0
KCO1 032010Z 12007KT 34/14 A3008 RMK A01 T03400143  RH  031%=      5-min Rain = 0
KCO1 032011Z 13007KT 34/14 A3008 RMK A01 T03420143  RH  030%=      5-min Rain = 0
KCO1 032012Z 16009KT 34/14 A3008 RMK A01 T03430142  RH  030%=      5-min Rain = 0
KCO1 032013Z 17006KT 34/14 A3008 RMK A01 T03430141  RH  030%=      5-min Rain = 0
KCO1 032014Z 17006KT 34/14 A3008 RMK A01 T03390141  RH  030%=      5-min Rain = 0
KCO1 032015Z 15008KT 34/14 A3008 RMK A01 T03410143  RH  030%=      5-min Rain = 0
KCO1 032016Z 15006KT 34/14 A3008 RMK A01 T03430142  RH  030%=      5-min Rain = 0
KCO1 032017Z 12007KT 34/14 A3008 RMK A01 T03430143  RH  030%=      5-min Rain = 0
KCO1 032018Z 12005KT 34/14 A3008 RMK A01 T03420142  RH  030%=      5-min Rain = 0
KCO1 032019Z 14008KT 34/14 A3008 RMK A01 T03420142  RH  030%=      5-min Rain = 0
KCO1 032020Z 14007KT 34/14 A3008 RMK A01 T03420142  RH  030%=      5-min Rain = 0
KCO1 032021Z 14008KT 34/14 A3008 RMK A01 T03420141  RH  030%=      5-min Rain = 0
KCO1 032022Z 15006KT 34/14 A3008 RMK A01 T03410141  RH  030%=      5-min Rain = 0
KCO1 032023Z 15007G12KT 34/14 A3008 RMK A01 T03400141  RH  030%=      5-min Rain = 0
KCO1 032024Z 14008KT 34/14 A3008 RMK A01 T03430141  RH  030%=      5-min Rain = 0
KCO1 032025Z 15007KT 34/14 A3008 RMK A01 T03420141  RH  030%=      5-min Rain = 0
KCO1 032026Z 15007KT 34/14 A3008 RMK A01 T03410141  RH  030%=      5-min Rain = 0
KCO1 032027Z 16006KT 34/14 A3008 RMK A01 T03400139  RH  030%=      5-min Rain = 0
KCO1 032028Z 18005KT 34/14 A3008 RMK A01 T03370138  RH  030%=      5-min Rain = 0
KCO1 032029Z 16004KT 34/14 A3008 RMK A01 T03360138  RH  030%=      5-min Rain = 0
KCO1 032030Z 16005KT 34/14 A3008 RMK A01 T03350137  RH  030%=      5-min Rain = 0
KCO1 032031Z 13006KT 34/14 A3008 RMK A01 T03360140  RH  031%=      5-min Rain = 0
KCO1 032032Z 12006KT 34/14 A3008 RMK A01 T03410142  RH  030%=      5-min Rain = 0
KCO1 032033Z 13008KT 34/14 A3008 RMK A01 T03440138  RH  029%=      5-min Rain = 0
KCO1 032034Z 13006KT 34/14 A3008 RMK A01 T03430137  RH  029%=      5-min Rain = 0
KCO1 032035Z 13005KT 34/14 A3008 RMK A01 T03400137  RH  029%=      5-min Rain = 0
KCO1 032036Z 15006KT 34/14 A3008 RMK A01 T03400136  RH  029%=      5-min Rain = 0
KCO1 032037Z 14004KT 34/14 A3008 RMK A01 T03400137  RH  029%=      5-min Rain = 0
KCO1 032038Z 17004KT 34/14 A3007 RMK A01 T03410135  RH  029%=      5-min Rain = 0
KCO1 032039Z 12004KT 34/14 A3007 RMK A01 T03410135  RH  029%=      5-min Rain = 0
KCO1 032040Z 11004KT 34/14 A3007 RMK A01 T03400135  RH  029%=      5-min Rain = 0
KCO1 032041Z 11003KT 34/13 A3007 RMK A01 T03380134  RH  029%=      5-min Rain = 0
KCO1 032042Z 13002KT 34/13 A3007 RMK A01 T03380134  RH  029%=      5-min Rain = 0
KCO1 032043Z 10005KT 34/14 A3007 RMK A01 T03370135  RH  029%=      5-min Rain = 0
KCO1 032044Z 11006KT 34/14 A3007 RMK A01 T03400137  RH  029%=      5-min Rain = 0
KCO1 032045Z 08004KT 34/14 A3007 RMK A01 T03410136  RH  029%=      5-min Rain = 0
KCO1 032046Z 07005KT 34/14 A3007 RMK A01 T03410135  RH  029%=      5-min Rain = 0
KCO1 032047Z 06004KT 34/14 A3007 RMK A01 T03390135  RH  029%=      5-min Rain = 0
KCO1 032048Z 06006KT 34/14 A3007 RMK A01 T03400136  RH  029%=      5-min Rain = 0
KCO1 032049Z 06006KT 34/14 A3007 RMK A01 T03420136  RH  029%=      5-min Rain = 0
KCO1 032050Z 05005KT 34/14 A3007 RMK A01 T03430135  RH  029%=      5-min Rain = 0
KCO1 032051Z 04005KT 34/14 A3007 RMK A01 T03430135  RH  029%=      5-min Rain = 0
KCO1 032052Z 03005KT 35/14 A3007 RMK A01 T03470136  RH  028%=      5-min Rain = 0
KCO1 032053Z 01003KT 35/14 A3007 RMK A01 T03460135  RH  028%=      5-min Rain = 0
KCO1 032054Z 03002KT 34/14 A3007 RMK A01 T03440135  RH  029%=      5-min Rain = 0
KCO1 032055Z 13003KT 34/14 A3007 RMK A01 T03430136  RH  029%=      5-min Rain = 0
KCO1 032056Z 12005KT 34/14 A3006 RMK A01 T03440136  RH  029%=      5-min Rain = 0
KCO1 032057Z 11007KT 35/14 A3006 RMK A01 T03480138  RH  028%=      5-min Rain = 0
KCO1 032058Z 11004KT 35/14 A3006 RMK A01 T03490138  RH  028%=      5-min Rain = 0
KCO1 032059Z 14004KT 35/14 A3006 RMK A01 T03480137  RH  028%=      5-min Rain = 0
KCO1 032100Z 19001KT 35/14 A3006 RMK A01 T03480137  RH  028%=      5-min Rain = 0
KCO1 032101Z 14001KT 35/14 A3006 RMK A01 T03470137  RH  028%=      5-min Rain = 0
KCO1 032102Z 11006KT 35/14 A3006 RMK A01 T03470139  RH  029%=      5-min Rain = 0
KCO1 032103Z 10001KT 35/14 A3006 RMK A01 T03450138  RH  029%=      5-min Rain = 0
KCO1 032104Z 08003KT 34/14 A3006 RMK A01 T03440139  RH  029%=      5-min Rain = 0
KCO1 032105Z 10005KT 34/14 A3006 RMK A01 T03440139  RH  029%=      5-min Rain = 0
KCO1 032106Z 11010KT 35/14 A3006 RMK A01 T03460138  RH  029%=      5-min Rain = 0
KCO1 032107Z 13010KT 35/14 A3006 RMK A01 T03490139  RH  028%=      5-min Rain = 0
KCO1 032108Z 12008KT 35/14 A3006 RMK A01 T03500139  RH  028%=      5-min Rain = 0
KCO1 032109Z 14007KT 35/14 A3006 RMK A01 T03490139  RH  028%=      5-min Rain = 0
KCO1 032110Z 13005KT 35/14 A3006 RMK A01 T03470138  RH  028%=      5-min Rain = 0
KCO1 032111Z 16005KT 35/14 A3006 RMK A01 T03460138  RH  029%=      5-min Rain = 0
KCO1 032112Z 18007KT 35/14 A3006 RMK A01 T03470138  RH  029%=      5-min Rain = 0
KCO1 032113Z 19005KT 35/14 A3006 RMK A01 T03480137  RH  028%=      5-min Rain = 0
KCO1 032114Z 20002KT 35/14 A3006 RMK A01 T03470137  RH  028%=      5-min Rain = 0
KCO1 032115Z 13002KT 35/14 A3006 RMK A01 T03480138  RH  028%=      5-min Rain = 0
KCO1 032116Z 11004KT 35/14 A3005 RMK A01 T03500137  RH  028%=      5-min Rain = 0
KCO1 032117Z 10004KT 35/14 A3005 RMK A01 T03490136  RH  028%=      5-min Rain = 0
KCO1 032118Z 09004KT 35/14 A3005 RMK A01 T03460136  RH  028%=      5-min Rain = 0
KCO1 032119Z 14007KT 35/14 A3005 RMK A01 T03470139  RH  029%=      5-min Rain = 0
KCO1 032120Z 14009KT 35/14 A3005 RMK A01 T03520138  RH  028%=      5-min Rain = 0
KCO1 032121Z 14008KT 35/14 A3005 RMK A01 T03540138  RH  027%=      5-min Rain = 0
KCO1 032122Z 16006KT 35/14 A3005 RMK A01 T03540137  RH  027%=      5-min Rain = 0
KCO1 032123Z 13005G10KT 35/14 A3005 RMK A01 T03540136  RH  027%=      5-min Rain = 0
KCO1 032124Z 13005KT 35/14 A3005 RMK A01 T03520137  RH  027%=      5-min Rain = 0
KCO1 032125Z 09004KT 35/13 A3005 RMK A01 T03500134  RH  027%=      5-min Rain = 0
KCO1 032126Z 09001KT 35/14 A3005 RMK A01 T03490135  RH  028%=      5-min Rain = 0
KCO1 032127Z 35000KT 35/13 A3005 RMK A01 T03490134  RH  028%=      5-min Rain = 0
KCO1 032128Z 00001KT 35/13 A3005 RMK A01 T03490134  RH  027%=      5-min Rain = 0
KCO1 032129Z 06004KT 35/14 A3005 RMK A01 T03500135  RH  027%=      5-min Rain = 0
KCO1 032130Z 08003KT 35/13 A3005 RMK A01 T03500134  RH  027%=      5-min Rain = 0
KCO1 032131Z 08006KT 35/13 A3005 RMK A01 T03500134  RH  027%=      5-min Rain = 0
KCO1 032132Z 09008KT 35/14 A3005 RMK A01 T03540135  RH  027%=      5-min Rain = 0
KCO1 032133Z 12009KT 36/14 A3005 RMK A01 T03550136  RH  027%=      5-min Rain = 0
KCO1 032134Z 12009KT 36/14 A3005 RMK A01 T03560136  RH  027%=      5-min Rain = 0
KCO1 032135Z 11007KT 35/13 A3005 RMK A01 T03520134  RH  027%=      5-min Rain = 0
KCO1 032136Z 10005KT 35/13 A3005 RMK A01 T03500133  RH  027%=      5-min Rain = 0
KCO1 032137Z 10005KT 35/13 A3005 RMK A01 T03470133  RH  028%=      5-min Rain = 0
KCO1 032138Z 08002KT 35/13 A3005 RMK A01 T03460133  RH  028%=      5-min Rain = 0
KCO1 032139Z 06002KT 35/13 A3004 RMK A01 T03450133  RH  028%=      5-min Rain = 0
KCO1 032140Z 05002KT 35/13 A3004 RMK A01 T03460133  RH  028%=      5-min Rain = 0
KCO1 032141Z 04005KT 35/13 A3004 RMK A01 T03460133  RH  028%=      5-min Rain = 0
KCO1 032142Z 04005KT 35/13 A3004 RMK A01 T03490134  RH  028%=      5-min Rain = 0
KCO1 032143Z 05005KT 35/13 A3004 RMK A01 T03510134  RH  027%=      5-min Rain = 0
KCO1 032144Z 06004KT 35/13 A3004 RMK A01 T03520133  RH  027%=      5-min Rain = 0
KCO1 032145Z 08004KT 35/13 A3004 RMK A01 T03530134  RH  027%=      5-min Rain = 0
KCO1 032146Z 11004KT 36/14 A3004 RMK A01 T03550135  RH  027%=      5-min Rain = 0
KCO1 032147Z 09003KT 36/13 A3004 RMK A01 T03550133  RH  026%=      5-min Rain = 0
KCO1 032148Z 14004KT 35/13 A3004 RMK A01 T03540132  RH  026%=      5-min Rain = 0
KCO1 032149Z 19004KT 35/13 A3004 RMK A01 T03530131  RH  026%=      5-min Rain = 0
KCO1 032150Z 19002KT 35/13 A3004 RMK A01 T03520131  RH  026%=      5-min Rain = 0
KCO1 032151Z 17003KT 35/13 A3004 RMK A01 T03540132  RH  026%=      5-min Rain = 0
KCO1 032152Z 16006KT 36/13 A3004 RMK A01 T03560133  RH  026%=      5-min Rain = 0
KCO1 032153Z 17005KT 36/13 A3004 RMK A01 T03570131  RH  026%=      5-min Rain = 0
KCO1 032154Z 19006KT 35/13 A3004 RMK A01 T03520131  RH  027%=      5-min Rain = 0
KCO1 032155Z 20005KT 35/13 A3004 RMK A01 T03500132  RH  027%=      5-min Rain = 0
KCO1 032156Z 15002KT 35/13 A3004 RMK A01 T03500132  RH  027%=      5-min Rain = 0
KCO1 032157Z 18003KT 35/13 A3004 RMK A01 T03520133  RH  027%=      5-min Rain = 0
KCO1 032158Z 17006KT 36/13 A3004 RMK A01 T03550133  RH  026%=      5-min Rain = 0
KCO1 032159Z 15004KT 36/13 A3004 RMK A01 T03560134  RH  026%=      5-min Rain = 0
KCO1 032200Z 10004KT 36/13 A3004 RMK A01 T03560132  RH  026%=      5-min Rain = 0
KCO1 032201Z 06004KT 35/13 A3004 RMK A01 T03540131  RH  026%=      5-min Rain = 0
KCO1 032202Z 08006KT 36/13 A3003 RMK A01 T03560132  RH  026%=      5-min Rain = 0
KCO1 032203Z 10007KT 36/13 A3003 RMK A01 T03580132  RH  026%=      5-min Rain = 0
KCO1 032204Z 09007KT 36/13 A3003 RMK A01 T03570132  RH  026%=      5-min Rain = 0
KCO1 032205Z 10007KT 36/13 A3003 RMK A01 T03570131  RH  026%=      5-min Rain = 0
KCO1 032206Z 11007KT 36/13 A3003 RMK A01 T03550130  RH  026%=      5-min Rain = 0
KCO1 032207Z 12007KT 35/13 A3003 RMK A01 T03530131  RH  026%=      5-min Rain = 0
KCO1 032208Z 14007KT 35/13 A3003 RMK A01 T03520131  RH  026%=      5-min Rain = 0
KCO1 032209Z 15008KT 35/13 A3003 RMK A01 T03510131  RH  027%=      5-min Rain = 0
KCO1 032210Z 07007KT 35/13 A3003 RMK A01 T03500131  RH  027%=      5-min Rain = 0
KCO1 032211Z 04007KT 35/13 A3003 RMK A01 T03540132  RH  026%=      5-min Rain = 0
KCO1 032212Z 03005KT 35/13 A3003 RMK A01 T03540130  RH  026%=      5-min Rain = 0
KCO1 032213Z 03003KT 35/13 A3003 RMK A01 T03510129  RH  026%=      5-min Rain = 0
KCO1 032214Z 03004KT 35/13 A3003 RMK A01 T03490130  RH  027%=      5-min Rain = 0
KCO1 032215Z 03007KT 35/13 A3003 RMK A01 T03480130  RH  027%=      5-min Rain = 0
KCO1 032216Z 03006KT 35/13 A3003 RMK A01 T03500130  RH  027%=      5-min Rain = 0
KCO1 032217Z 01006KT 35/13 A3003 RMK A01 T03480129  RH  027%=      5-min Rain = 0
KCO1 032218Z 02006KT 35/13 A3003 RMK A01 T03470130  RH  027%=      5-min Rain = 0
KCO1 032219Z 04004KT 35/13 A3003 RMK A01 T03470129  RH  027%=      5-min Rain = 0
KCO1 032220Z 03002KT 35/13 A3003 RMK A01 T03470129  RH  027%=      5-min Rain = 0
KCO1 032221Z 01005KT 35/13 A3003 RMK A01 T03490130  RH  027%=      5-min Rain = 0
KCO1 032222Z 07004KT 35/13 A3003 RMK A01 T03500129  RH  026%=      5-min Rain = 0
KCO1 032223Z 05004KT 35/13 A3002 RMK A01 T03520130  RH  026%=      5-min Rain = 0
KCO1 032224Z 04005KT 35/13 A3002 RMK A01 T03540130  RH  026%=      5-min Rain = 0
KCO1 032225Z 10007KT 36/13 A3002 RMK A01 T03560130  RH  026%=      5-min Rain = 0
KCO1 032226Z 14005KT 36/13 A3002 RMK A01 T03600131  RH  025%=      5-min Rain = 0
KCO1 032227Z 13006KT 36/13 A3002 RMK A01 T03610130  RH  025%=      5-min Rain = 0
KCO1 032228Z 15003KT 36/13 A3002 RMK A01 T03570129  RH  025%=      5-min Rain = 0
KCO1 032229Z 09000KT 36/13 A3002 RMK A01 T03560129  RH  026%=      5-min Rain = 0
KCO1 032230Z 06002KT 36/13 A3002 RMK A01 T03570130  RH  026%=      5-min Rain = 0
KCO1 032231Z 04002KT 36/13 A3002 RMK A01 T03600129  RH  025%=      5-min Rain = 0
KCO1 032232Z 01003KT 36/13 A3002 RMK A01 T03600129  RH  025%=      5-min Rain = 0
KCO1 032233Z 02002KT 36/13 A3002 RMK A01 T03600128  RH  025%=      5-min Rain = 0
KCO1 032234Z 04004G9KT 36/13 A3002 RMK A01 T03560128  RH  025%=      5-min Rain = 0
KCO1 032235Z 04006KT 36/13 A3002 RMK A01 T03560128  RH  025%=      5-min Rain = 0
KCO1 032236Z 05007KT 36/13 A3002 RMK A01 T03570129  RH  026%=      5-min Rain = 0
KCO1 032237Z 07006KT 36/13 A3002 RMK A01 T03590128  RH  025%=      5-min Rain = 0
KCO1 032238Z 07005KT 36/13 A3002 RMK A01 T03590128  RH  025%=      5-min Rain = 0
KCO1 032239Z 04005KT 36/13 A3002 RMK A01 T03610129  RH  025%=      5-min Rain = 0
KCO1 032240Z 06005KT 36/13 A3002 RMK A01 T03620129  RH  025%=      5-min Rain = 0
KCO1 032241Z 06003KT 36/13 A3002 RMK A01 T03620129  RH  025%=      5-min Rain = 0
KCO1 032242Z 07003KT 36/13 A3002 RMK A01 T03630128  RH  025%=      5-min Rain = 0
KCO1 032243Z 08004KT 36/13 A3002 RMK A01 T03620127  RH  024%=      5-min Rain = 0
KCO1 032244Z 08004KT 36/13 A3002 RMK A01 T03580126  RH  025%=      5-min Rain = 0
KCO1 032245Z 10003KT 36/13 A3002 RMK A01 T03550126  RH  025%=      5-min Rain = 0
KCO1 032246Z 04004KT 35/13 A3002 RMK A01 T03540126  RH  025%=      5-min Rain = 0
KCO1 032247Z 06005KT 35/13 A3001 RMK A01 T03540127  RH  025%=      5-min Rain = 0
KCO1 032248Z 11004KT 35/13 A3001 RMK A01 T03540127  RH  025%=      5-min Rain = 0
KCO1 032249Z 07005KT 36/13 A3001 RMK A01 T03560128  RH  025%=      5-min Rain = 0
KCO1 032250Z 09007KT 36/13 A3001 RMK A01 T03600128  RH  025%=      5-min Rain = 0
KCO1 032251Z 13006KT 36/13 A3001 RMK A01 T03600129  RH  025%=      5-min Rain = 0
KCO1 032252Z 10008KT 36/13 A3001 RMK A01 T03590130  RH  025%=      5-min Rain = 0
KCO1 032253Z 09008KT 36/13 A3001 RMK A01 T03590129  RH  025%=      5-min Rain = 0
KCO1 032254Z 07006KT 36/13 A3001 RMK A01 T03570128  RH  025%=      5-min Rain = 0
KCO1 032255Z 11007KT 35/13 A3001 RMK A01 T03540128  RH  026%=      5-min Rain = 0
KCO1 032256Z 13005KT 35/13 A3001 RMK A01 T03540128  RH  026%=      5-min Rain = 0
KCO1 032257Z 10003KT 35/13 A3001 RMK A01 T03520126  RH  026%=      5-min Rain = 0
KCO1 032258Z 14005KT 35/13 A3001 RMK A01 T03520127  RH  026%=      5-min Rain = 0
KCO1 032259Z 12006KT 35/13 A3001 RMK A01 T03530128  RH  026%=      5-min Rain = 0
KCO1 032300Z 05007KT 36/13 A3001 RMK A01 T03560126  RH  025%=      5-min Rain = 0
KCO1 032301Z 05008KT 36/13 A3001 RMK A01 T03570125  RH  025%=      5-min Rain = 0
KCO1 032302Z 06008KT 36/13 A3001 RMK A01 T03580125  RH  025%=      5-min Rain = 0
KCO1 032303Z 06007KT 36/13 A3001 RMK A01 T03570125  RH  025%=      5-min Rain = 0
KCO1 032304Z 05006KT 36/13 A3001 RMK A01 T03570125  RH  025%=      5-min Rain = 0
KCO1 032305Z 05006KT 36/13 A30 RMK A01 T03570125  RH  025%=      5-min Rain = 0
KCO1 032306Z 05006KT 36/12 A30 RMK A01 T03570124  RH  025%=      5-min Rain = 0
KCO1 032307Z 06005KT 36/13 A30 RMK A01 T03580125  RH  025%=      5-min Rain = 0
KCO1 032308Z 04005KT 36/13 A30 RMK A01 T03600125  RH  024%=      5-min Rain = 0
KCO1 032309Z 04007KT 36/13 A30 RMK A01 T03610125  RH  024%=      5-min Rain = 0
KCO1 032310Z 05008KT 36/13 A30 RMK A01 T03600126  RH  024%=      5-min Rain = 0
KCO1 032311Z 04006KT 36/13 A30 RMK A01 T03590125  RH  025%=      5-min Rain = 0
KCO1 032312Z 05006KT 36/13 A30 RMK A01 T03580126  RH  025%=      5-min Rain = 0
KCO1 032313Z 06005KT 36/13 A30 RMK A01 T03560126  RH  025%=      5-min Rain = 0
KCO1 032314Z 06005KT 36/13 A30 RMK A01 T03590127  RH  025%=      5-min Rain = 0
KCO1 032315Z 07005KT 36/13 A30 RMK A01 T03600125  RH  024%=      5-min Rain = 0
KCO1 032316Z 06005KT 36/13 A30 RMK A01 T03590125  RH  025%=      5-min Rain = 0
KCO1 032317Z 06006KT 36/12 A30 RMK A01 T03580124  RH  025%=      5-min Rain = 0
KCO1 032318Z 03003KT 36/13 A30 RMK A01 T03570125  RH  025%=      5-min Rain = 0
KCO1 032319Z 07003KT 36/12 A30 RMK A01 T03560124  RH  025%=      5-min Rain = 0
KCO1 032320Z 08004KT 36/13 A30 RMK A01 T03560125  RH  025%=      5-min Rain = 0
KCO1 032321Z 07005KT 36/13 A30 RMK A01 T03560125  RH  025%=      5-min Rain = 0
KCO1 032322Z 09004KT 36/13 A30 RMK A01 T03580125  RH  025%=      5-min Rain = 0
KCO1 032323Z 13006KT 36/13 A30 RMK A01 T03570125  RH  025%=      5-min Rain = 0
KCO1 032324Z 13004KT 36/13 A30 RMK A01 T03560125  RH  025%=      5-min Rain = 0
KCO1 032325Z 16006KT 36/12 A30 RMK A01 T03560124  RH  025%=      5-min Rain = 0
KCO1 032326Z 16005KT 36/12 A30 RMK A01 T03560124  RH  025%=      5-min Rain = 0
KCO1 032327Z 15007KT 36/13 A30 RMK A01 T03560125  RH  025%=      5-min Rain = 0
KCO1 032328Z 14007KT 36/13 A30 RMK A01 T03560126  RH  025%=      5-min Rain = 0
KCO1 032329Z 14007KT 36/13 A30 RMK A01 T03560126  RH  025%=      5-min Rain = 0
KCO1 032330Z 13004KT 36/13 A30 RMK A01 T03560125  RH  025%=      5-min Rain = 0
KCO1 032331Z 17003KT 36/13 A30 RMK A01 T03550125  RH  025%=      5-min Rain = 0
KCO1 032332Z 18004KT 36/13 A2999 RMK A01 T03550126  RH  025%=      5-min Rain = 0
KCO1 032333Z 14004KT 36/13 A2999 RMK A01 T03560125  RH  025%=      5-min Rain = 0
KCO1 032334Z 10004KT 36/13 A30 RMK A01 T03550126  RH  025%=      5-min Rain = 0
KCO1 032335Z 10005KT 36/13 A2999 RMK A01 T03550126  RH  025%=      5-min Rain = 0
KCO1 032336Z 11006KT 36/13 A2999 RMK A01 T03550125  RH  025%=      5-min Rain = 0
KCO1 032337Z 11006KT 36/13 A2999 RMK A01 T03550125  RH  025%=      5-min Rain = 0
KCO1 032338Z 11007KT 35/13 A2999 RMK A01 T03540125  RH  025%=      5-min Rain = 0
KCO1 032339Z 12009KT 35/13 A2999 RMK A01 T03530125  RH  025%=      5-min Rain = 0
KCO1 032340Z 12009KT 36/13 A2999 RMK A01 T03550126  RH  025%=      5-min Rain = 0
KCO1 032341Z 13008KT 36/13 A2999 RMK A01 T03570126  RH  025%=      5-min Rain = 0
KCO1 032342Z 13008KT 36/12 A2999 RMK A01 T03550124  RH  025%=      5-min Rain = 0
KCO1 032343Z 14009KT 35/13 A2999 RMK A01 T03540125  RH  025%=      5-min Rain = 0
KCO1 032344Z 14010KT 35/13 A2999 RMK A01 T03540125  RH  025%=      5-min Rain = 0
KCO1 032345Z 15006KT 35/12 A2999 RMK A01 T03530124  RH  025%=      5-min Rain = 0
KCO1 032346Z 17006KT 35/13 A2999 RMK A01 T03520125  RH  025%=      5-min Rain = 0
KCO1 032347Z 18004KT 35/13 A2999 RMK A01 T03520125  RH  026%=      5-min Rain = 0
KCO1 032348Z 18004KT 35/13 A2999 RMK A01 T03530125  RH  025%=      5-min Rain = 0
KCO1 032349Z 12006KT 36/13 A2999 RMK A01 T03550125  RH  025%=      5-min Rain = 0
KCO1 032350Z 11006KT 36/13 A2999 RMK A01 T03570125  RH  025%=      5-min Rain = 0
KCO1 032351Z 10005KT 36/12 A2999 RMK A01 T03560123  RH  025%=      5-min Rain = 0
KCO1 032352Z 08004KT 35/12 A2999 RMK A01 T03540122  RH  025%=      5-min Rain = 0
KCO1 032353Z 08003KT 35/12 A2999 RMK A01 T03530122  RH  025%=      5-min Rain = 0
KCO1 032354Z 09003KT 35/12 A2999 RMK A01 T03530122  RH  025%=      5-min Rain = 0
KCO1 032355Z 12004KT 35/12 A2999 RMK A01 T03540123  RH  025%=      5-min Rain = 0
KCO1 032356Z 09004KT 36/12 A2999 RMK A01 T03550123  RH  025%=      5-min Rain = 0
KCO1 032357Z 09004KT 36/12 A2999 RMK A01 T03550122  RH  025%=      5-min Rain = 0
KCO1 032358Z 13003KT 35/12 A2999 RMK A01 T03540123  RH  025%=      5-min Rain = 0
KCO1 032359Z 07002KT 35/12 A2999 RMK A01 T03540123  RH  025%=      5-min Rain = 0
KCO1 040000Z 11002KT 36/12 A2999 RMK A01 T03550123  RH  025%=      5-min Rain = 0
KCO1 040001Z 12004KT 36/12 A2999 RMK A01 T03550124  RH  025%=      5-min Rain = 0
KCO1 040002Z 11004KT 35/12 A2999 RMK A01 T03540124  RH  025%=      5-min Rain = 0
KCO1 040003Z 11003KT 35/12 A2999 RMK A01 T03540124  RH  025%=      5-min Rain = 0
KCO1 040004Z 13002KT 35/12 A2999 RMK A01 T03530124  RH  025%=      5-min Rain = 0
KCO1 040005Z 21000KT 35/12 A2999 RMK A01 T03530123  RH  025%=      5-min Rain = 0
KCO1 040006Z 15002KT 35/13 A2999 RMK A01 T03540125  RH  025%=      5-min Rain = 0
KCO1 040007Z 14005KT 36/12 A2999 RMK A01 T03550124  RH  025%=      5-min Rain = 0
KCO1 040008Z 12005KT 36/12 A2999 RMK A01 T03550124  RH  025%=      5-min Rain = 0
KCO1 040009Z 12004KT 35/12 A2999 RMK A01 T03540124  RH  025%=      5-min Rain = 0
KCO1 040010Z 11002KT 35/12 A2999 RMK A01 T03530123  RH  025%=      5-min Rain = 0
KCO1 040011Z 09001KT 35/12 A2999 RMK A01 T03530123  RH  025%=      5-min Rain = 0
KCO1 040012Z 11003KT 35/12 A2999 RMK A01 T03530122  RH  025%=      5-min Rain = 0
KCO1 040013Z 13004KT 35/12 A2999 RMK A01 T03530123  RH  025%=      5-min Rain = 0
KCO1 040014Z 15005KT 35/12 A2999 RMK A01 T03540124  RH  025%=      5-min Rain = 0
KCO1 040015Z 13008KT 36/12 A2999 RMK A01 T03550124  RH  025%=      5-min Rain = 0
KCO1 040016Z 14005KT 35/12 A2999 RMK A01 T03540124  RH  025%=      5-min Rain = 0
KCO1 040017Z 15003KT 35/12 A2999 RMK A01 T03530123  RH  025%=      5-min Rain = 0
KCO1 040018Z 14003KT 35/12 A2999 RMK A01 T03520122  RH  025%=      5-min Rain = 0
KCO1 040019Z 14003KT 35/12 A2999 RMK A01 T03520123  RH  025%=      5-min Rain = 0
KCO1 040020Z 22001KT 35/12 A2999 RMK A01 T03520123  RH  025%=      5-min Rain = 0
KCO1 040021Z 21002KT 35/12 A2999 RMK A01 T03520123  RH  025%=      5-min Rain = 0
KCO1 040022Z 10002KT 35/12 A2999 RMK A01 T03520123  RH  025%=      5-min Rain = 0
KCO1 040023Z 10004KT 35/12 A2999 RMK A01 T03530123  RH  025%=      5-min Rain = 0
KCO1 040024Z 10006KT 35/12 A2999 RMK A01 T03530123  RH  025%=      5-min Rain = 0
KCO1 040025Z 11004KT 35/12 A2999 RMK A01 T03540123  RH  025%=      5-min Rain = 0
KCO1 040026Z 12001KT 35/12 A2999 RMK A01 T03540123  RH  025%=      5-min Rain = 0
KCO1 040027Z 14000KT 35/12 A2999 RMK A01 T03540123  RH  025%=      5-min Rain = 0
KCO1 040028Z 08002KT 35/12 A2999 RMK A01 T03540123  RH  025%=      5-min Rain = 0
KCO1 040029Z 09003KT 36/12 A2999 RMK A01 T03550122  RH  025%=      5-min Rain = 0
KCO1 040030Z 10004KT 36/12 A2999 RMK A01 T03550123  RH  025%=      5-min Rain = 0
KCO1 040031Z 10004KT 35/12 A2999 RMK A01 T03540122  RH  025%=      5-min Rain = 0
KCO1 040032Z 12005KT 35/12 A2999 RMK A01 T03530122  RH  025%=      5-min Rain = 0
KCO1 040033Z 12006KT 35/12 A2999 RMK A01 T03520123  RH  025%=      5-min Rain = 0
KCO1 040034Z 14004KT 35/12 A2999 RMK A01 T03510122  RH  025%=      5-min Rain = 0
KCO1 040035Z 15002KT 35/12 A2998 RMK A01 T03510123  RH  025%=      5-min Rain = 0
KCO1 040036Z 13001KT 35/12 A2998 RMK A01 T03510122  RH  025%=      5-min Rain = 0
KCO1 040037Z 11000KT 35/12 A2998 RMK A01 T03520123  RH  025%=      5-min Rain = 0
KCO1 040038Z 13003KT 35/12 A2998 RMK A01 T03530123  RH  025%=      5-min Rain = 0
KCO1 040039Z 09007KT 35/12 A2998 RMK A01 T03540123  RH  025%=      5-min Rain = 0
KCO1 040040Z 08006KT 35/12 A2998 RMK A01 T03540121  RH  025%=      5-min Rain = 0
KCO1 040041Z 08005KT 35/12 A2998 RMK A01 T03530121  RH  025%=      5-min Rain = 0
KCO1 040042Z 07005KT 35/12 A2998 RMK A01 T03520121  RH  025%=      5-min Rain = 0
KCO1 040043Z 08005KT 35/12 A2999 RMK A01 T03520121  RH  025%=      5-min Rain = 0
KCO1 040044Z 07005KT 35/12 A2999 RMK A01 T03520121  RH  025%=      5-min Rain = 0
KCO1 040045Z 07007KT 35/12 A2999 RMK A01 T03520121  RH  025%=      5-min Rain = 0
KCO1 040046Z 09006KT 35/12 A2998 RMK A01 T03520121  RH  025%=      5-min Rain = 0
KCO1 040047Z 11007KT 35/12 A2998 RMK A01 T03520121  RH  025%=      5-min Rain = 0
KCO1 040048Z 12008KT 35/12 A2998 RMK A01 T03520122  RH  025%=      5-min Rain = 0
KCO1 040049Z 10007KT 35/12 A2998 RMK A01 T03510123  RH  025%=      5-min Rain = 0
KCO1 040050Z 10007KT 35/12 A2998 RMK A01 T03510122  RH  025%=      5-min Rain = 0
KCO1 040051Z 11008KT 35/12 A2998 RMK A01 T03510122  RH  025%=      5-min Rain = 0
KCO1 040052Z 10008KT 35/12 A2998 RMK A01 T03510122  RH  025%=      5-min Rain = 0
KCO1 040053Z 10007KT 35/12 A2998 RMK A01 T03490122  RH  025%=      5-min Rain = 0
KCO1 040054Z 11006KT 35/12 A2998 RMK A01 T03480122  RH  025%=      5-min Rain = 0
KCO1 040055Z 11005KT 35/12 A2998 RMK A01 T03470122  RH  026%=      5-min Rain = 0
KCO1 040056Z 11005KT 35/12 A2998 RMK A01 T03470122  RH  026%=      5-min Rain = 0
KCO1 040057Z 11006KT 35/12 A2998 RMK A01 T03470122  RH  026%=      5-min Rain = 0
KCO1 040058Z 10005KT 35/12 A2998 RMK A01 T03470122  RH  026%=      5-min Rain = 0
KCO1 040059Z 10005KT 35/12 A2998 RMK A01 T03470121  RH  025%=      5-min Rain = 0
KCO1 040100Z 09006KT 35/12 A2998 RMK A01 T03470121  RH  026%=      5-min Rain = 0
KCO1 040101Z 11005KT 35/12 A2998 RMK A01 T03470121  RH  026%=      5-min Rain = 0
KCO1 040102Z 09005KT 35/12 A2998 RMK A01 T03470121  RH  026%=      5-min Rain = 0
KCO1 040103Z 07003KT 35/12 A2998 RMK A01 T03470121  RH  025%=      5-min Rain = 0
KCO1 040104Z 06005KT 35/12 A2998 RMK A01 T03470120  RH  025%=      5-min Rain = 0
KCO1 040105Z 07005KT 35/12 A2998 RMK A01 T03470120  RH  025%=      5-min Rain = 0
KCO1 040106Z 07005KT 35/12 A2998 RMK A01 T03470120  RH  025%=      5-min Rain = 0
KCO1 040107Z 07005KT 35/12 A2998 RMK A01 T03460120  RH  025%=      5-min Rain = 0
KCO1 040108Z 07005KT 35/12 A2998 RMK A01 T03460120  RH  025%=      5-min Rain = 0
KCO1 040109Z 07005KT 35/12 A2998 RMK A01 T03460120  RH  025%=      5-min Rain = 0
KCO1 040110Z 07006KT 35/12 A2998 RMK A01 T03460120  RH  025%=      5-min Rain = 0
KCO1 040111Z 08005KT 35/12 A2998 RMK A01 T03460120  RH  025%=      5-min Rain = 0
KCO1 040112Z 08004KT 35/12 A2998 RMK A01 T03460120  RH  026%=      5-min Rain = 0
KCO1 040113Z 08005KT 35/12 A2998 RMK A01 T03450120  RH  026%=      5-min Rain = 0
KCO1 040114Z 09005KT 35/12 A2998 RMK A01 T03450120  RH  026%=      5-min Rain = 0
KCO1 040115Z 08004KT 35/12 A2998 RMK A01 T03450120  RH  026%=      5-min Rain = 0
KCO1 040116Z 09004KT 35/12 A2998 RMK A01 T03450121  RH  026%=      5-min Rain = 0
KCO1 040117Z 09004KT 35/12 A2998 RMK A01 T03450120  RH  026%=      5-min Rain = 0
KCO1 040118Z 08004KT 34/12 A2998 RMK A01 T03440121  RH  026%=      5-min Rain = 0
KCO1 040119Z 08004KT 34/12 A2998 RMK A01 T03440120  RH  026%=      5-min Rain = 0
KCO1 040120Z 09003KT 34/12 A2998 RMK A01 T03440121  RH  026%=      5-min Rain = 0
KCO1 040121Z 10003KT 34/12 A2998 RMK A01 T03430121  RH  026%=      5-min Rain = 0
KCO1 040122Z 08004KT 34/12 A2998 RMK A01 T03430121  RH  026%=      5-min Rain = 0
KCO1 040123Z 06003KT 34/12 A2998 RMK A01 T03420121  RH  026%=      5-min Rain = 0
KCO1 040124Z 06003KT 34/12 A2998 RMK A01 T03420121  RH  026%=      5-min Rain = 0
KCO1 040125Z 06004KT 34/12 A2998 RMK A01 T03420120  RH  026%=      5-min Rain = 0
KCO1 040126Z 05005KT 34/12 A2998 RMK A01 T03410119  RH  026%=      5-min Rain = 0
KCO1 040127Z 06005KT 34/12 A2998 RMK A01 T03410119  RH  026%=      5-min Rain = 0
KCO1 040128Z 08005KT 34/12 A2998 RMK A01 T03400120  RH  026%=      5-min Rain = 0
KCO1 040129Z 10004KT 34/12 A2998 RMK A01 T03400120  RH  026%=      5-min Rain = 0
KCO1 040130Z 11005KT 34/12 A2998 RMK A01 T03390120  RH  027%=      5-min Rain = 0
KCO1 040131Z 10006KT 34/12 A2998 RMK A01 T03380121  RH  027%=      5-min Rain = 0
KCO1 040132Z 10006KT 34/12 A2998 RMK A01 T03380121  RH  027%=      5-min Rain = 0
KCO1 040133Z 09005KT 34/12 A2998 RMK A01 T03380121  RH  027%=      5-min Rain = 0
KCO1 040134Z 09005KT 34/12 A2998 RMK A01 T03380120  RH  027%=      5-min Rain = 0
KCO1 040135Z 09004KT 34/12 A2998 RMK A01 T03370121  RH  027%=      5-min Rain = 0
KCO1 040136Z 10005KT 34/12 A2998 RMK A01 T03360120  RH  027%=      5-min Rain = 0
KCO1 040137Z 09004KT 34/12 A2998 RMK A01 T03360120  RH  027%=      5-min Rain = 0
KCO1 040138Z 08004KT 34/12 A2998 RMK A01 T03350120  RH  027%=      5-min Rain = 0
KCO1 040139Z 08004KT 34/12 A2998 RMK A01 T03350120  RH  027%=      5-min Rain = 0
KCO1 040140Z 08003KT 33/12 A2998 RMK A01 T03340120  RH  027%=      5-min Rain = 0
KCO1 040141Z 08004KT 33/12 A2998 RMK A01 T03330120  RH  027%=      5-min Rain = 0
KCO1 040142Z 07004KT 33/12 A2998 RMK A01 T03330120  RH  027%=      5-min Rain = 0
KCO1 040143Z 07003KT 33/12 A2998 RMK A01 T03330120  RH  027%=      5-min Rain = 0
KCO1 040144Z 07004KT 33/12 A2999 RMK A01 T03320120  RH  028%=      5-min Rain = 0
KCO1 040145Z 08004KT 33/12 A2999 RMK A01 T03320120  RH  028%=      5-min Rain = 0
KCO1 040146Z 07004KT 33/12 A2999 RMK A01 T03310121  RH  028%=      5-min Rain = 0
KCO1 040147Z 07005KT 33/12 A2999 RMK A01 T03310121  RH  028%=      5-min Rain = 0
KCO1 040148Z 07005KT 33/12 A2999 RMK A01 T03300122  RH  028%=      5-min Rain = 0
KCO1 040149Z 07005KT 33/12 A2999 RMK A01 T03300122  RH  028%=      5-min Rain = 0
KCO1 040150Z 07005KT 33/12 A2999 RMK A01 T03290122  RH  028%=      5-min Rain = 0
KCO1 040151Z 07005KT 33/12 A2999 RMK A01 T03290122  RH  028%=      5-min Rain = 0
KCO1 040152Z 07005KT 33/12 A2999 RMK A01 T03290122  RH  028%=      5-min Rain = 0
KCO1 040153Z 07005KT 33/12 A2999 RMK A01 T03280122  RH  028%=      5-min Rain = 0
KCO1 040154Z 07004KT 33/12 A2999 RMK A01 T03280122  RH  029%=      5-min Rain = 0
KCO1 040155Z 06005KT 33/12 A2999 RMK A01 T03270122  RH  029%=      5-min Rain = 0
KCO1 040156Z 08004KT 33/12 A2999 RMK A01 T03270122  RH  029%=      5-min Rain = 0
KCO1 040157Z 08004KT 33/12 A2999 RMK A01 T03270122  RH  029%=      5-min Rain = 0
KCO1 040158Z 07005KT 33/12 A2999 RMK A01 T03270122  RH  029%=      5-min Rain = 0
KCO1 040159Z 07005KT 33/12 A2999 RMK A01 T03260122  RH  029%=      5-min Rain = 0
KCO1 040200Z 07005KT 33/12 A2999 RMK A01 T03260122  RH  029%=      5-min Rain = 0
KCO1 040201Z 07005KT 33/12 A2999 RMK A01 T03250122  RH  029%=      5-min Rain = 0
KCO1 040202Z 07004KT 33/12 A2999 RMK A01 T03250122  RH  029%=      5-min Rain = 0
KCO1 040203Z 07005KT 32/12 A2999 RMK A01 T03240121  RH  029%=      5-min Rain = 0
KCO1 040204Z 07005KT 32/12 A2999 RMK A01 T03230121  RH  029%=      5-min Rain = 0
KCO1 040205Z 07005KT 32/12 A2999 RMK A01 T03230121  RH  029%=      5-min Rain = 0
KCO1 040206Z 07005KT 32/12 A2999 RMK A01 T03230121  RH  029%=      5-min Rain = 0
KCO1 040207Z 07005KT 32/12 A2999 RMK A01 T03230121  RH  029%=      5-min Rain = 0
KCO1 040208Z 07005KT 32/12 A2999 RMK A01 T03230121  RH  029%=      5-min Rain = 0
KCO1 040209Z 07005KT 32/12 A2999 RMK A01 T03230121  RH  029%=      5-min Rain = 0
KCO1 040210Z 08005KT 32/12 A2999 RMK A01 T03230122  RH  029%=      5-min Rain = 0
KCO1 040211Z 08005KT 32/12 A2999 RMK A01 T03230121  RH  029%=      5-min Rain = 0
KCO1 040212Z 08005KT 32/12 A2999 RMK A01 T03220121  RH  029%=      5-min Rain = 0
KCO1 040213Z 08004KT 32/12 A2999 RMK A01 T03220121  RH  029%=      5-min Rain = 0
KCO1 040214Z 07005KT 32/12 A2999 RMK A01 T03210121  RH  029%=      5-min Rain = 0
KCO1 040215Z 08005KT 32/12 A2999 RMK A01 T03210121  RH  030%=      5-min Rain = 0
KCO1 040216Z 08006KT 32/12 A2999 RMK A01 T03200121  RH  030%=      5-min Rain = 0
KCO1 040217Z 08005KT 32/12 A2999 RMK A01 T03190122  RH  030%=      5-min Rain = 0
KCO1 040218Z 08005KT 32/12 A2999 RMK A01 T03190122  RH  030%=      5-min Rain = 0
KCO1 040219Z 08006KT 32/12 A2999 RMK A01 T03180122  RH  030%=      5-min Rain = 0
KCO1 040220Z 08005KT 32/12 A2999 RMK A01 T03180122  RH  030%=      5-min Rain = 0
KCO1 040221Z 08005KT 32/12 A2999 RMK A01 T03190122  RH  030%=      5-min Rain = 0
KCO1 040222Z 08005KT 32/12 A2999 RMK A01 T03180122  RH  030%=      5-min Rain = 0
KCO1 040223Z 08005KT 32/12 A2999 RMK A01 T03170122  RH  030%=      5-min Rain = 0
KCO1 040224Z 08005KT 32/12 A2999 RMK A01 T03160122  RH  030%=      5-min Rain = 0
KCO1 040225Z 08005KT 32/12 A2999 RMK A01 T03160122  RH  031%=      5-min Rain = 0
KCO1 040226Z 08005KT 32/12 A2999 RMK A01 T03160123  RH  031%=      5-min Rain = 0
KCO1 040227Z 08005KT 32/12 A2999 RMK A01 T03160123  RH  031%=      5-min Rain = 0
KCO1 040228Z 08005KT 32/12 A2999 RMK A01 T03160123  RH  031%=      5-min Rain = 0
KCO1 040229Z 08005KT 32/12 A30 RMK A01 T03150123  RH  031%=      5-min Rain = 0
KCO1 040230Z 08005KT 32/12 A30 RMK A01 T03150123  RH  031%=      5-min Rain = 0
KCO1 040231Z 08005KT 32/12 A30 RMK A01 T03150123  RH  031%=      5-min Rain = 0
KCO1 040232Z 08005KT 32/12 A30 RMK A01 T03150123  RH  031%=      5-min Rain = 0
KCO1 040233Z 08005KT 32/12 A30 RMK A01 T03150123  RH  031%=      5-min Rain = 0
KCO1 040234Z 08005KT 32/12 A30 RMK A01 T03150123  RH  031%=      5-min Rain = 0
KCO1 040235Z 08005KT 31/12 A30 RMK A01 T03140123  RH  031%=      5-min Rain = 0
KCO1 040236Z 08005KT 31/12 A30 RMK A01 T03140123  RH  031%=      5-min Rain = 0
KCO1 040237Z 08005KT 31/12 A30 RMK A01 T03130123  RH  031%=      5-min Rain = 0
KCO1 040238Z 08006KT 31/12 A30 RMK A01 T03130123  RH  031%=      5-min Rain = 0
KCO1 040239Z 08005KT 31/12 A30 RMK A01 T03120123  RH  031%=      5-min Rain = 0
KCO1 040240Z 08005KT 31/12 A30 RMK A01 T03130123  RH  031%=      5-min Rain = 0
KCO1 040241Z 08006KT 31/12 A30 RMK A01 T03120123  RH  031%=      5-min Rain = 0
KCO1 040242Z 08005KT 31/12 A30 RMK A01 T03120122  RH  031%=      5-min Rain = 0
KCO1 040243Z 08006KT 31/12 A30 RMK A01 T03120122  RH  031%=      5-min Rain = 0
KCO1 040244Z 08005KT 31/12 A30 RMK A01 T03120123  RH  031%=      5-min Rain = 0
KCO1 040245Z 08005KT 31/12 A30 RMK A01 T03120123  RH  031%=      5-min Rain = 0
KCO1 040246Z 08005KT 31/12 A30 RMK A01 T03120122  RH  031%=      5-min Rain = 0
KCO1 040247Z 09006KT 31/12 A3001 RMK A01 T03120123  RH  031%=      5-min Rain = 0
KCO1 040248Z 09005KT 31/12 A3001 RMK A01 T03120123  RH  031%=      5-min Rain = 0
KCO1 040249Z 09005KT 31/12 A3001 RMK A01 T03110123  RH  032%=      5-min Rain = 0
KCO1 040250Z 09006KT 31/12 A3001 RMK A01 T03110122  RH  032%=      5-min Rain = 0
KCO1 040251Z 09006KT 31/12 A3001 RMK A01 T03100122  RH  032%=      5-min Rain = 0
KCO1 040252Z 09005KT 31/12 A3001 RMK A01 T03100122  RH  032%=      5-min Rain = 0
KCO1 040253Z 09006KT 31/12 A3001 RMK A01 T03100122  RH  032%=      5-min Rain = 0
KCO1 040254Z 10005KT 31/12 A3001 RMK A01 T03090122  RH  032%=      5-min Rain = 0
KCO1 040255Z 10006KT 31/12 A3001 RMK A01 T03080122  RH  032%=      5-min Rain = 0
KCO1 040256Z 10005KT 31/12 A3001 RMK A01 T03080121  RH  032%=      5-min Rain = 0
KCO1 040257Z 11006KT 31/12 A3001 RMK A01 T03070121  RH  032%=      5-min Rain = 0
KCO1 040258Z 11005KT 31/12 A3001 RMK A01 T03060120  RH  032%=      5-min Rain = 0
KCO1 040259Z 11006KT 31/12 A3001 RMK A01 T03050120  RH  032%=      5-min Rain = 0
KCO1 040300Z 11005KT 31/12 A3001 RMK A01 T03050120  RH  032%=      5-min Rain = 0
KCO1 040301Z 12005KT 30/12 A3001 RMK A01 T03040120  RH  032%=      5-min Rain = 0
KCO1 040302Z 12006KT 30/12 A3001 RMK A01 T03030120  RH  032%=      5-min Rain = 0
KCO1 040303Z 11007KT 30/12 A3001 RMK A01 T03020120  RH  033%=      5-min Rain = 0
KCO1 040304Z 11008KT 30/12 A3001 RMK A01 T03030121  RH  033%=      5-min Rain = 0
KCO1 040305Z 11007KT 31/12 A3001 RMK A01 T03050121  RH  032%=      5-min Rain = 0
KCO1 040306Z 11006KT 31/12 A3001 RMK A01 T03060121  RH  032%=      5-min Rain = 0
KCO1 040307Z 11006KT 31/12 A3001 RMK A01 T03060121  RH  032%=      5-min Rain = 0
KCO1 040308Z 11007KT 31/12 A3001 RMK A01 T03070121  RH  032%=      5-min Rain = 0
KCO1 040309Z 12006KT 31/12 A3001 RMK A01 T03070121  RH  032%=      5-min Rain = 0
KCO1 040310Z 11006KT 31/12 A3001 RMK A01 T03070121  RH  032%=      5-min Rain = 0
KCO1 040311Z 11006KT 31/12 A3001 RMK A01 T03070121  RH  032%=      5-min Rain = 0
KCO1 040312Z 11006KT 31/12 A3001 RMK A01 T03060121  RH  032%=      5-min Rain = 0
KCO1 040313Z 11006KT 31/12 A3001 RMK A01 T03050121  RH  032%=      5-min Rain = 0
KCO1 040314Z 11006KT 30/12 A3001 RMK A01 T03040121  RH  033%=      5-min Rain = 0
KCO1 040315Z 11006KT 30/12 A3001 RMK A01 T03040122  RH  033%=      5-min Rain = 0
KCO1 040316Z 11005KT 30/12 A3001 RMK A01 T03030122  RH  033%=      5-min Rain = 0
KCO1 040317Z 11006KT 30/12 A3001 RMK A01 T03030122  RH  033%=      5-min Rain = 0
KCO1 040318Z 11006KT 30/12 A3001 RMK A01 T03020121  RH  033%=      5-min Rain = 0
KCO1 040319Z 12006KT 30/12 A3001 RMK A01 T03010121  RH  033%=      5-min Rain = 0
KCO1 040320Z 11005KT 30/12 A3002 RMK A01 T03000121  RH  033%=      5-min Rain = 0
KCO1 040321Z 12006KT 30/12 A3002 RMK A01 T03000121  RH  033%=      5-min Rain = 0
KCO1 040322Z 11005KT 30/12 A3002 RMK A01 T02990121  RH  033%=      5-min Rain = 0
KCO1 040323Z 12006KT 30/12 A3002 RMK A01 T02980121  RH  033%=      5-min Rain = 0
KCO1 040324Z 12005KT 30/12 A3002 RMK A01 T02980121  RH  034%=      5-min Rain = 0
KCO1 040325Z 12005KT 30/12 A3002 RMK A01 T02980120  RH  034%=      5-min Rain = 0
KCO1 040326Z 12005KT 30/12 A3002 RMK A01 T02980120  RH  034%=      5-min Rain = 0
KCO1 040327Z 12005KT 30/12 A3002 RMK A01 T02970120  RH  034%=      5-min Rain = 0
KCO1 040328Z 12005KT 30/12 A3002 RMK A01 T02970120  RH  034%=      5-min Rain = 0
KCO1 040329Z 11005KT 30/12 A3002 RMK A01 T02960120  RH  034%=      5-min Rain = 0
KCO1 040330Z 11005KT 30/12 A3002 RMK A01 T02960120  RH  034%=      5-min Rain = 0
KCO1 040331Z 10005KT 30/12 A3002 RMK A01 T02960120  RH  034%=      5-min Rain = 0
KCO1 040332Z 10005KT 30/12 A3002 RMK A01 T02950119  RH  034%=      5-min Rain = 0
KCO1 040333Z 09005KT 30/12 A3002 RMK A01 T02950119  RH  034%=      5-min Rain = 0
KCO1 040334Z 09005KT 29/12 A3003 RMK A01 T02940119  RH  034%=      5-min Rain = 0
KCO1 040335Z 09006KT 29/12 A3003 RMK A01 T02930118  RH  034%=      5-min Rain = 0
KCO1 040336Z 10005KT 29/12 A3003 RMK A01 T02930118  RH  034%=      5-min Rain = 0
KCO1 040337Z 09006KT 29/12 A3003 RMK A01 T02920117  RH  034%=      5-min Rain = 0
KCO1 040338Z 10006KT 29/12 A3003 RMK A01 T02920118  RH  034%=      5-min Rain = 0
KCO1 040339Z 10006KT 29/12 A3003 RMK A01 T02920118  RH  034%=      5-min Rain = 0
KCO1 040340Z 10006KT 29/12 A3003 RMK A01 T02920118  RH  034%=      5-min Rain = 0
KCO1 040341Z 10006KT 29/12 A3003 RMK A01 T02920118  RH  034%=      5-min Rain = 0
KCO1 040342Z 10005KT 29/12 A3003 RMK A01 T02920118  RH  034%=      5-min Rain = 0
KCO1 040343Z 11006KT 29/12 A3003 RMK A01 T02920118  RH  034%=      5-min Rain = 0
KCO1 040344Z 11006KT 29/12 A3003 RMK A01 T02930118  RH  034%=      5-min Rain = 0
KCO1 040345Z 11006KT 29/12 A3003 RMK A01 T02930118  RH  034%=      5-min Rain = 0
KCO1 040346Z 11007KT 29/12 A3003 RMK A01 T02940118  RH  034%=      5-min Rain = 0
KCO1 040347Z 12007KT 29/12 A3003 RMK A01 T02940116  RH  033%=      5-min Rain = 0
KCO1 040348Z 12007KT 29/12 A3003 RMK A01 T02940116  RH  033%=      5-min Rain = 0
KCO1 040349Z 12007KT 29/12 A3003 RMK A01 T02940115  RH  033%=      5-min Rain = 0
KCO1 040350Z 12007KT 29/12 A3003 RMK A01 T02940115  RH  033%=      5-min Rain = 0
KCO1 040351Z 12007KT 29/12 A3003 RMK A01 T02940115  RH  033%=      5-min Rain = 0
KCO1 040352Z 12006KT 30/12 A3003 RMK A01 T02950115  RH  033%=      5-min Rain = 0
KCO1 040353Z 12006KT 30/11 A3003 RMK A01 T02950114  RH  033%=      5-min Rain = 0
KCO1 040354Z 12007KT 30/12 A3003 RMK A01 T02950115  RH  033%=      5-min Rain = 0
KCO1 040355Z 12007KT 30/12 A3003 RMK A01 T02950115  RH  033%=      5-min Rain = 0
KCO1 040356Z 12007KT 30/12 A3003 RMK A01 T02960115  RH  033%=      5-min Rain = 0
KCO1 040357Z 12007KT 30/12 A3003 RMK A01 T02950115  RH  033%=      5-min Rain = 0
KCO1 040358Z 12007KT 29/12 A3003 RMK A01 T02940115  RH  033%=      5-min Rain = 0
KCO1 040359Z 12006KT 29/12 A3003 RMK A01 T02940115  RH  033%=      5-min Rain = 0
KCO1 040400Z 12007KT 29/11 A3003 RMK A01 T02930114  RH  033%=      5-min Rain = 0
KCO1 040401Z 12007KT 29/11 A3003 RMK A01 T02930114  RH  033%=      5-min Rain = 0
KCO1 040402Z 12006KT 29/11 A3003 RMK A01 T02920114  RH  033%=      5-min Rain = 0
KCO1 040403Z 12006KT 29/11 A3003 RMK A01 T02920114  RH  033%=      5-min Rain = 0
KCO1 040404Z 13006KT 29/11 A3003 RMK A01 T02910114  RH  033%=      5-min Rain = 0
KCO1 040405Z 13006KT 29/11 A3003 RMK A01 T02900114  RH  034%=      5-min Rain = 0
KCO1 040406Z 13006KT 29/11 A3003 RMK A01 T02890113  RH  034%=      5-min Rain = 0
KCO1 040407Z 13006KT 29/11 A3003 RMK A01 T02890114  RH  034%=      5-min Rain = 0
KCO1 040408Z 13006KT 29/11 A3003 RMK A01 T02890114  RH  034%=      5-min Rain = 0
KCO1 040409Z 13006KT 29/11 A3004 RMK A01 T02880113  RH  034%=      5-min Rain = 0
KCO1 040410Z 13006KT 29/11 A3004 RMK A01 T02880113  RH  034%=      5-min Rain = 0
KCO1 040411Z 13006KT 29/11 A3004 RMK A01 T02870113  RH  034%=      5-min Rain = 0
KCO1 040412Z 13007KT 29/11 A3004 RMK A01 T02870113  RH  034%=      5-min Rain = 0
KCO1 040413Z 13007KT 29/11 A3003 RMK A01 T02860113  RH  034%=      5-min Rain = 0
KCO1 040414Z 14007KT 29/11 A3003 RMK A01 T02860112  RH  034%=      5-min Rain = 0
KCO1 040415Z 14007KT 29/11 A3003 RMK A01 T02870112  RH  034%=      5-min Rain = 0
KCO1 040416Z 14007KT 29/11 A3003 RMK A01 T02870112  RH  034%=      5-min Rain = 0
KCO1 040417Z 13008KT 29/11 A3003 RMK A01 T02870112  RH  034%=      5-min Rain = 0
KCO1 040418Z 14008KT 29/11 A3003 RMK A01 T02870113  RH  034%=      5-min Rain = 0
KCO1 040419Z 14008KT 29/11 A3003 RMK A01 T02880113  RH  034%=      5-min Rain = 0
KCO1 040420Z 14008KT 29/11 A3003 RMK A01 T02890113  RH  034%=      5-min Rain = 0
KCO1 040421Z 14008KT 29/11 A3003 RMK A01 T02900113  RH  034%=      5-min Rain = 0
KCO1 040422Z 14009KT 29/11 A3003 RMK A01 T02910114  RH  033%=      5-min Rain = 0
KCO1 040423Z 14010KT 29/11 A3003 RMK A01 T02910114  RH  033%=      5-min Rain = 0
KCO1 040424Z 14009KT 29/11 A3003 RMK A01 T02920114  RH  033%=      5-min Rain = 0
KCO1 040425Z 14008KT 29/11 A3003 RMK A01 T02930114  RH  033%=      5-min Rain = 0
KCO1 040426Z 14010KT 29/11 A3003 RMK A01 T02930114  RH  033%=      5-min Rain = 0
KCO1 040427Z 14010KT 29/11 A3003 RMK A01 T02930114  RH  033%=      5-min Rain = 0
KCO1 040428Z 14009KT 29/12 A3003 RMK A01 T02940115  RH  033%=      5-min Rain = 0
KCO1 040429Z 14009KT 29/12 A3003 RMK A01 T02940115  RH  033%=      5-min Rain = 0
KCO1 040430Z 14009KT 29/12 A3003 RMK A01 T02940115  RH  033%=      5-min Rain = 0
KCO1 040431Z 14008KT 29/12 A3003 RMK A01 T02930115  RH  033%=      5-min Rain = 0
KCO1 040432Z 14009KT 29/12 A3003 RMK A01 T02930116  RH  033%=      5-min Rain = 0
KCO1 040433Z 14010KT 29/12 A3003 RMK A01 T02930116  RH  034%=      5-min Rain = 0
KCO1 040434Z 14008KT 29/12 A3003 RMK A01 T02920116  RH  034%=      5-min Rain = 0
KCO1 040435Z 14008KT 29/12 A3003 RMK A01 T02920116  RH  034%=      5-min Rain = 0
KCO1 040436Z 14009KT 29/12 A3003 RMK A01 T02920116  RH  034%=      5-min Rain = 0
KCO1 040437Z 14010KT 29/12 A3003 RMK A01 T02920117  RH  034%=      5-min Rain = 0
KCO1 040438Z 14008KT 29/12 A3003 RMK A01 T02920117  RH  034%=      5-min Rain = 0
KCO1 040439Z 14009KT 29/12 A3003 RMK A01 T02920117  RH  034%=      5-min Rain = 0
KCO1 040440Z 14008KT 29/12 A3003 RMK A01 T02920118  RH  034%=      5-min Rain = 0
KCO1 040441Z 14008KT 29/12 A3003 RMK A01 T02910118  RH  034%=      5-min Rain = 0
KCO1 040442Z 13009KT 29/12 A3003 RMK A01 T02910118  RH  034%=      5-min Rain = 0
KCO1 040443Z 13008KT 29/12 A3003 RMK A01 T02920119  RH  034%=      5-min Rain = 0
KCO1 040444Z 13008KT 29/12 A3003 RMK A01 T02920119  RH  034%=      5-min Rain = 0
KCO1 040445Z 14009KT 29/12 A3003 RMK A01 T02910119  RH  035%=      5-min Rain = 0
KCO1 040446Z 13009KT 29/12 A3003 RMK A01 T02910119  RH  035%=      5-min Rain = 0
KCO1 040447Z 13008KT 29/12 A3003 RMK A01 T02910119  RH  035%=      5-min Rain = 0
KCO1 040448Z 13009KT 29/12 A3003 RMK A01 T02910120  RH  035%=      5-min Rain = 0
KCO1 040449Z 13009KT 29/12 A3003 RMK A01 T02910120  RH  035%=      5-min Rain = 0
KCO1 040450Z 13009KT 29/12 A3003 RMK A01 T02910120  RH  035%=      5-min Rain = 0
KCO1 040451Z 13009KT 29/12 A3003 RMK A01 T02910121  RH  035%=      5-min Rain = 0
KCO1 040452Z 13009KT 29/12 A3003 RMK A01 T02910120  RH  035%=      5-min Rain = 0
KCO1 040453Z 13009KT 29/12 A3003 RMK A01 T02910121  RH  035%=      5-min Rain = 0
KCO1 040454Z 13009KT 29/12 A3003 RMK A01 T02910121  RH  035%=      5-min Rain = 0
KCO1 040455Z 13009KT 29/12 A3003 RMK A01 T02910121  RH  035%=      5-min Rain = 0
KCO1 040456Z 14009KT 29/12 A3003 RMK A01 T02910121  RH  035%=      5-min Rain = 0
KCO1 040457Z 13008KT 29/12 A3003 RMK A01 T02910121  RH  035%=      5-min Rain = 0
KCO1 040458Z 13009KT 29/12 A3003 RMK A01 T02910121  RH  035%=      5-min Rain = 0
KCO1 040459Z 13008KT 29/12 A3003 RMK A01 T02910121  RH  035%=      5-min Rain = 0

Page generated in 0.0811 seconds.